KAL9984 UGTB-RKSI
Flight info
| Callsign | KAL9984 |
|---|---|
| Flight time | 7h 53m |
| Altitude | 35000 |
| Route | DISKA M737 VERCA M747 SUBUT T923 ERLEV L850 BAKUV N701 LARGI B701 KRS B738 NEBIT B476 TIMGA/N0477F370 A480 OTBOR/K0883F370 N147 GENDI Z621 ARBOL M610 RULAD/K0869S1130 A343 POSOT B215 FKG W188 BATUS/K0882S1190 W188 GOVSA W66 DKO W69 HUR B339 LADIX W34 VAPGU W100 ORAVA W201 UNSEK A326 DONVO G597 AGAVO/N0469F390 Y644 REBIT REBIT2H |
| Aircraft | B77W/H-SDE1E2E3FGHIJ2J3J4J5M1RWXY/LB1D1 |
Departure
| Time | 2026-05-06 03:22 |
|---|---|
| Airport | Tbilisi International Airport (UGTB) |
Arrival
| Time | 2026-05-06 11:16 |
|---|---|
| Airport | Incheon International Airport (RKSI) |
| Time | Latitude | Longitude | Altitude | Speed | Heading |
|---|---|---|---|---|---|
| 2026-05-06 03:06 | 41.66852 | 44.96381 | 1531 ft | 0 kts | 43° |
| 2026-05-06 03:14 | 41.66851 | 44.96380 | 1531 ft | 0 kts | 43° |
| 2026-05-06 03:15 | 41.66842 | 44.96369 | 1531 ft | 3 kts | 43° |
| 2026-05-06 03:15 | 41.66830 | 44.96353 | 1523 ft | 2 kts | 44° |
| 2026-05-06 03:15 | 41.66818 | 44.96336 | 1523 ft | 3 kts | 61° |
| 2026-05-06 03:15 | 41.66812 | 44.96318 | 1525 ft | 3 kts | 90° |
| 2026-05-06 03:16 | 41.66814 | 44.96302 | 1523 ft | 3 kts | 123° |
| 2026-05-06 03:16 | 41.66825 | 44.96283 | 1523 ft | 3 kts | 137° |
| 2026-05-06 03:16 | 41.66839 | 44.96267 | 1523 ft | 2 kts | 134° |
| 2026-05-06 03:16 | 41.66841 | 44.96263 | 1523 ft | 2 kts | 133° |
| 2026-05-06 03:18 | 41.66837 | 44.96270 | 1523 ft | 3 kts | 134° |
| 2026-05-06 03:18 | 41.66802 | 44.96318 | 1523 ft | 11 kts | 134° |
| 2026-05-06 03:18 | 41.66747 | 44.96395 | 1524 ft | 10 kts | 136° |
| 2026-05-06 03:19 | 41.66686 | 44.96427 | 1524 ft | 10 kts | 182° |
| 2026-05-06 03:19 | 41.66614 | 44.96407 | 1528 ft | 14 kts | 193° |
| 2026-05-06 03:19 | 41.66503 | 44.96372 | 1529 ft | 17 kts | 193° |
| 2026-05-06 03:19 | 41.66390 | 44.96334 | 1524 ft | 17 kts | 194° |
| 2026-05-06 03:20 | 41.66164 | 44.96324 | 1529 ft | 17 kts | 154° |
| 2026-05-06 03:20 | 41.66075 | 44.96423 | 1524 ft | 17 kts | 136° |
| 2026-05-06 03:20 | 41.65992 | 44.96529 | 1524 ft | 15 kts | 136° |
| 2026-05-06 03:21 | 41.65931 | 44.96593 | 1524 ft | 11 kts | 158° |
| 2026-05-06 03:21 | 41.65873 | 44.96585 | 1526 ft | 8 kts | 209° |
| 2026-05-06 03:21 | 41.65847 | 44.96521 | 1523 ft | 8 kts | 257° |
| 2026-05-06 03:21 | 41.65855 | 44.96446 | 1521 ft | 8 kts | 307° |
| 2026-05-06 03:22 | 41.65938 | 44.96339 | 1526 ft | 45 kts | 316° |
| 2026-05-06 03:22 | 41.66418 | 44.95736 | 1527 ft | 139 kts | 316° |
| 2026-05-06 03:22 | 41.67296 | 44.94634 | 1720 ft | 191 kts | 316° |
| 2026-05-06 03:22 | 41.68250 | 44.93429 | 2704 ft | 190 kts | 316° |
| 2026-05-06 03:23 | 41.69110 | 44.92036 | 3397 ft | 205 kts | 295° |
| 2026-05-06 03:23 | 41.69322 | 44.90033 | 3669 ft | 236 kts | 261° |
| 2026-05-06 03:23 | 41.68648 | 44.87936 | 4197 ft | 255 kts | 236° |
| 2026-05-06 03:23 | 41.67560 | 44.85998 | 4864 ft | 265 kts | 222° |
| 2026-05-06 03:24 | 41.65968 | 44.84755 | 5673 ft | 269 kts | 194° |
| 2026-05-06 03:24 | 41.64110 | 44.84578 | 6580 ft | 270 kts | 174° |
| 2026-05-06 03:24 | 41.62231 | 44.84872 | 7485 ft | 273 kts | 171° |
| 2026-05-06 03:24 | 41.60408 | 44.85464 | 8299 ft | 276 kts | 160° |
| 2026-05-06 03:25 | 41.58606 | 44.86382 | 9211 ft | 279 kts | 158° |
| 2026-05-06 03:25 | 41.56805 | 44.87372 | 10132 ft | 281 kts | 158° |
| 2026-05-06 03:25 | 41.54943 | 44.88337 | 10741 ft | 296 kts | 159° |
| 2026-05-06 03:25 | 41.52921 | 44.89338 | 10948 ft | 323 kts | 160° |
| 2026-05-06 03:26 | 41.50720 | 44.90418 | 11174 ft | 351 kts | 160° |
| 2026-05-06 03:26 | 41.48366 | 44.91570 | 11727 ft | 367 kts | 160° |
| 2026-05-06 03:26 | 41.45943 | 44.92758 | 12536 ft | 375 kts | 160° |
| 2026-05-06 03:26 | 41.43479 | 44.93969 | 13462 ft | 380 kts | 160° |
| 2026-05-06 03:27 | 41.41105 | 44.95498 | 14138 ft | 384 kts | 143° |
| 2026-05-06 03:27 | 41.39338 | 44.98199 | 14871 ft | 392 kts | 118° |
| 2026-05-06 03:27 | 41.38476 | 45.01634 | 15716 ft | 393 kts | 104° |
| 2026-05-06 03:27 | 41.37859 | 45.05217 | 16414 ft | 401 kts | 105° |
| 2026-05-06 03:28 | 41.37141 | 45.08833 | 17228 ft | 406 kts | 108° |
| 2026-05-06 03:28 | 41.36308 | 45.12436 | 18108 ft | 409 kts | 109° |
| 2026-05-06 03:28 | 41.35383 | 45.16035 | 18888 ft | 412 kts | 111° |
| 2026-05-06 03:28 | 41.34398 | 45.19629 | 19646 ft | 415 kts | 112° |
| 2026-05-06 03:29 | 41.33386 | 45.23197 | 20374 ft | 419 kts | 112° |
| 2026-05-06 03:29 | 41.32338 | 45.26835 | 21098 ft | 422 kts | 113° |
| 2026-05-06 03:29 | 41.31280 | 45.30495 | 21806 ft | 426 kts | 113° |
| 2026-05-06 03:29 | 41.30211 | 45.34186 | 22507 ft | 430 kts | 113° |
| 2026-05-06 03:30 | 41.29133 | 45.37917 | 23204 ft | 434 kts | 113° |
| 2026-05-06 03:30 | 41.28048 | 45.41673 | 23818 ft | 437 kts | 113° |
| 2026-05-06 03:30 | 41.26951 | 45.45467 | 24369 ft | 441 kts | 114° |
| 2026-05-06 03:30 | 41.25845 | 45.49292 | 24905 ft | 445 kts | 114° |
| 2026-05-06 03:31 | 41.24730 | 45.53143 | 25457 ft | 449 kts | 114° |
| 2026-05-06 03:31 | 41.23601 | 45.57037 | 25976 ft | 452 kts | 114° |
| 2026-05-06 03:31 | 41.22465 | 45.60949 | 26478 ft | 456 kts | 115° |
| 2026-05-06 03:31 | 41.21315 | 45.64898 | 26967 ft | 459 kts | 115° |
| 2026-05-06 03:32 | 41.20206 | 45.68840 | 27423 ft | 464 kts | 114° |
| 2026-05-06 03:32 | 41.19122 | 45.72904 | 27879 ft | 468 kts | 114° |
| 2026-05-06 03:32 | 41.18053 | 45.77004 | 28328 ft | 472 kts | 114° |
| 2026-05-06 03:32 | 41.16978 | 45.81134 | 28724 ft | 475 kts | 114° |
| 2026-05-06 03:33 | 41.15899 | 45.85252 | 29097 ft | 479 kts | 114° |
| 2026-05-06 03:33 | 41.14790 | 45.89452 | 29470 ft | 482 kts | 115° |
| 2026-05-06 03:33 | 41.13675 | 45.93650 | 29934 ft | 483 kts | 115° |
| 2026-05-06 03:33 | 41.12554 | 45.97857 | 30388 ft | 482 kts | 115° |
| 2026-05-06 03:34 | 41.11431 | 46.02058 | 30815 ft | 482 kts | 115° |
| 2026-05-06 03:34 | 41.10322 | 46.06196 | 31177 ft | 483 kts | 116° |
| 2026-05-06 03:34 | 41.09192 | 46.10402 | 31552 ft | 483 kts | 116° |
| 2026-05-06 03:34 | 41.08063 | 46.14603 | 31933 ft | 483 kts | 116° |
| 2026-05-06 03:35 | 41.06929 | 46.18815 | 32326 ft | 484 kts | 116° |
| 2026-05-06 03:35 | 41.05813 | 46.22960 | 32697 ft | 484 kts | 116° |
| 2026-05-06 03:35 | 41.04679 | 46.27158 | 33068 ft | 484 kts | 116° |
| 2026-05-06 03:35 | 41.03542 | 46.31370 | 33436 ft | 485 kts | 116° |
| 2026-05-06 03:36 | 41.02415 | 46.35582 | 33795 ft | 485 kts | 116° |
| 2026-05-06 03:36 | 41.01291 | 46.39803 | 34117 ft | 486 kts | 116° |
| 2026-05-06 03:36 | 41.00166 | 46.44034 | 34391 ft | 486 kts | 116° |
| 2026-05-06 03:36 | 40.99036 | 46.48272 | 34646 ft | 487 kts | 116° |
| 2026-05-06 03:37 | 40.97905 | 46.52500 | 34881 ft | 489 kts | 116° |
| 2026-05-06 03:37 | 40.96773 | 46.56716 | 34914 ft | 493 kts | 116° |
| 2026-05-06 03:37 | 40.94472 | 46.65279 | 34965 ft | 491 kts | 116° |
| 2026-05-06 03:38 | 40.92203 | 46.73702 | 34961 ft | 486 kts | 116° |
| 2026-05-06 03:38 | 40.90125 | 46.82251 | 34976 ft | 491 kts | 110° |
| 2026-05-06 03:39 | 40.89137 | 46.91234 | 34980 ft | 499 kts | 101° |
| 2026-05-06 03:39 | 40.88544 | 47.00402 | 34978 ft | 501 kts | 101° |
| 2026-05-06 03:40 | 40.87916 | 47.09600 | 34976 ft | 503 kts | 102° |
| 2026-05-06 03:40 | 40.87240 | 47.18842 | 34968 ft | 505 kts | 102° |
| 2026-05-06 03:41 | 40.86566 | 47.27831 | 34966 ft | 506 kts | 102° |
| 2026-05-06 03:41 | 40.85868 | 47.37090 | 34969 ft | 507 kts | 102° |
| 2026-05-06 03:42 | 40.85165 | 47.46343 | 34969 ft | 507 kts | 102° |
| 2026-05-06 03:42 | 40.84481 | 47.55610 | 34959 ft | 507 kts | 101° |
| 2026-05-06 03:43 | 40.83915 | 47.64898 | 34963 ft | 507 kts | 101° |
| 2026-05-06 03:43 | 40.83365 | 47.74185 | 34962 ft | 507 kts | 101° |
| 2026-05-06 03:44 | 40.82794 | 47.83462 | 34959 ft | 506 kts | 101° |
| 2026-05-06 03:44 | 40.82203 | 47.92726 | 34967 ft | 506 kts | 101° |
| 2026-05-06 03:45 | 40.81603 | 48.01982 | 34955 ft | 506 kts | 101° |
| 2026-05-06 03:45 | 40.80996 | 48.11240 | 34956 ft | 506 kts | 101° |
| 2026-05-06 03:46 | 40.80384 | 48.20477 | 34959 ft | 505 kts | 101° |
| 2026-05-06 03:46 | 40.79764 | 48.29720 | 34963 ft | 506 kts | 101° |
| 2026-05-06 03:47 | 40.79137 | 48.38960 | 34958 ft | 504 kts | 101° |
| 2026-05-06 03:47 | 40.78508 | 48.48115 | 34956 ft | 504 kts | 101° |
| 2026-05-06 03:48 | 40.77870 | 48.57322 | 34965 ft | 503 kts | 101° |
| 2026-05-06 03:48 | 40.77223 | 48.66511 | 34961 ft | 503 kts | 101° |
| 2026-05-06 03:49 | 40.76569 | 48.75700 | 34960 ft | 503 kts | 101° |
| 2026-05-06 03:49 | 40.75909 | 48.84890 | 34971 ft | 503 kts | 101° |
| 2026-05-06 03:50 | 40.75240 | 48.94078 | 34973 ft | 503 kts | 101° |
| 2026-05-06 03:50 | 40.74563 | 49.03284 | 34970 ft | 504 kts | 101° |
| 2026-05-06 03:51 | 40.73885 | 49.12440 | 34982 ft | 505 kts | 101° |
| 2026-05-06 03:51 | 40.73087 | 49.21616 | 34990 ft | 501 kts | 106° |
| 2026-05-06 03:52 | 40.71262 | 49.30398 | 35000 ft | 492 kts | 117° |
| 2026-05-06 03:52 | 40.68704 | 49.38755 | 34990 ft | 492 kts | 118° |
| 2026-05-06 03:53 | 40.66148 | 49.47163 | 34973 ft | 494 kts | 118° |
| 2026-05-06 03:53 | 40.63626 | 49.55605 | 34977 ft | 495 kts | 118° |
| 2026-05-06 03:54 | 40.60992 | 49.63958 | 34975 ft | 494 kts | 120° |
| 2026-05-06 03:54 | 40.58230 | 49.72192 | 34966 ft | 495 kts | 120° |
| 2026-05-06 03:55 | 40.55463 | 49.80488 | 34964 ft | 496 kts | 120° |
| 2026-05-06 03:55 | 40.52711 | 49.88807 | 34958 ft | 496 kts | 120° |
| 2026-05-06 03:56 | 40.49952 | 49.97133 | 34960 ft | 497 kts | 120° |
| 2026-05-06 03:56 | 40.47400 | 50.05601 | 34966 ft | 503 kts | 113° |
| 2026-05-06 03:57 | 40.45898 | 50.14663 | 34968 ft | 511 kts | 105° |
| 2026-05-06 03:57 | 40.44738 | 50.23818 | 34962 ft | 512 kts | 105° |
| 2026-05-06 03:58 | 40.43542 | 50.33036 | 34961 ft | 512 kts | 105° |
| 2026-05-06 03:58 | 40.42302 | 50.42247 | 34972 ft | 513 kts | 106° |
| 2026-05-06 03:59 | 40.41038 | 50.51466 | 34974 ft | 513 kts | 106° |
| 2026-05-06 03:59 | 40.39768 | 50.60683 | 34980 ft | 513 kts | 106° |
| 2026-05-06 04:00 | 40.38494 | 50.69886 | 34970 ft | 513 kts | 106° |
| 2026-05-06 04:00 | 40.37214 | 50.79087 | 34977 ft | 512 kts | 106° |
| 2026-05-06 04:01 | 40.36146 | 50.86722 | 34979 ft | 512 kts | 106° |
| 2026-05-06 04:01 | 40.34642 | 50.97401 | 34982 ft | 512 kts | 106° |
| 2026-05-06 04:02 | 40.33342 | 51.06576 | 34982 ft | 511 kts | 107° |
| 2026-05-06 04:02 | 40.32257 | 51.14193 | 34980 ft | 511 kts | 107° |
| 2026-05-06 04:03 | 40.30732 | 51.24830 | 34981 ft | 510 kts | 107° |
| 2026-05-06 04:03 | 40.29415 | 51.33968 | 34972 ft | 510 kts | 107° |
| 2026-05-06 04:04 | 40.28307 | 51.41615 | 34981 ft | 510 kts | 107° |
| 2026-05-06 04:04 | 40.26978 | 51.50733 | 34981 ft | 510 kts | 107° |
| 2026-05-06 04:05 | 40.25648 | 51.59811 | 34976 ft | 511 kts | 107° |
| 2026-05-06 04:05 | 40.24303 | 51.68944 | 34975 ft | 511 kts | 107° |
| 2026-05-06 04:06 | 40.22952 | 51.78077 | 34965 ft | 511 kts | 107° |
| 2026-05-06 04:06 | 40.21595 | 51.87203 | 34969 ft | 510 kts | 107° |
| 2026-05-06 04:07 | 40.20231 | 51.96317 | 34967 ft | 510 kts | 107° |
| 2026-05-06 04:07 | 40.18862 | 52.05413 | 34970 ft | 510 kts | 107° |
| 2026-05-06 04:08 | 40.17496 | 52.14442 | 34963 ft | 510 kts | 107° |
| 2026-05-06 04:08 | 40.16114 | 52.23526 | 34959 ft | 509 kts | 107° |
| 2026-05-06 04:09 | 40.14724 | 52.32611 | 34950 ft | 510 kts | 107° |
| 2026-05-06 04:09 | 40.13325 | 52.41701 | 34949 ft | 510 kts | 107° |
| 2026-05-06 04:10 | 40.11917 | 52.50799 | 34945 ft | 511 kts | 108° |
| 2026-05-06 04:10 | 40.10500 | 52.59907 | 34943 ft | 512 kts | 108° |
| 2026-05-06 04:11 | 40.09069 | 52.69062 | 34941 ft | 514 kts | 108° |
| 2026-05-06 04:11 | 40.07628 | 52.78228 | 34940 ft | 516 kts | 108° |
| 2026-05-06 04:12 | 40.06186 | 52.87359 | 34941 ft | 517 kts | 108° |
| 2026-05-06 04:12 | 40.04889 | 52.96607 | 34925 ft | 524 kts | 99° |
| 2026-05-06 04:13 | 40.05483 | 53.06200 | 34945 ft | 538 kts | 80° |
| 2026-05-06 04:13 | 40.07999 | 53.15450 | 34946 ft | 542 kts | 71° |
| 2026-05-06 04:14 | 40.10828 | 53.24588 | 34936 ft | 543 kts | 71° |
| 2026-05-06 04:14 | 40.13601 | 53.33767 | 34931 ft | 543 kts | 71° |
| 2026-05-06 04:15 | 40.16301 | 53.42977 | 34934 ft | 542 kts | 72° |
| 2026-05-06 04:15 | 40.18969 | 53.52191 | 34930 ft | 541 kts | 72° |
| 2026-05-06 04:16 | 40.21628 | 53.61398 | 34930 ft | 541 kts | 72° |
| 2026-05-06 04:16 | 40.24282 | 53.70599 | 34932 ft | 540 kts | 72° |
| 2026-05-06 04:17 | 40.26929 | 53.79801 | 34936 ft | 540 kts | 72° |
| 2026-05-06 04:17 | 40.29567 | 53.89002 | 34934 ft | 539 kts | 72° |
| 2026-05-06 04:18 | 40.32195 | 53.98205 | 34933 ft | 539 kts | 72° |
| 2026-05-06 04:18 | 40.34812 | 54.07400 | 34939 ft | 539 kts | 72° |
| 2026-05-06 04:19 | 40.37405 | 54.16544 | 34935 ft | 538 kts | 72° |
| 2026-05-06 04:19 | 40.40006 | 54.25751 | 34938 ft | 538 kts | 72° |
| 2026-05-06 04:20 | 40.42602 | 54.34971 | 34939 ft | 539 kts | 72° |
| 2026-05-06 04:20 | 40.45192 | 54.44206 | 34935 ft | 539 kts | 72° |
| 2026-05-06 04:21 | 40.47776 | 54.53450 | 34933 ft | 540 kts | 72° |
| 2026-05-06 04:21 | 40.50356 | 54.62714 | 34932 ft | 540 kts | 72° |
| 2026-05-06 04:22 | 40.52927 | 54.71978 | 34930 ft | 539 kts | 72° |
| 2026-05-06 04:23 | 40.56765 | 54.85872 | 34936 ft | 539 kts | 72° |
| 2026-05-06 04:23 | 40.59313 | 54.95137 | 34934 ft | 538 kts | 72° |
| 2026-05-06 04:24 | 40.61850 | 55.04397 | 34935 ft | 538 kts | 72° |
| 2026-05-06 04:24 | 40.64378 | 55.13659 | 34953 ft | 538 kts | 72° |
| 2026-05-06 04:25 | 40.66899 | 55.22931 | 34940 ft | 537 kts | 72° |
| 2026-05-06 04:25 | 40.69411 | 55.32201 | 34929 ft | 537 kts | 72° |
| 2026-05-06 04:26 | 40.71914 | 55.41475 | 34932 ft | 537 kts | 72° |
| 2026-05-06 04:26 | 40.74406 | 55.50738 | 34929 ft | 536 kts | 72° |
| 2026-05-06 04:27 | 40.76875 | 55.59952 | 34920 ft | 536 kts | 72° |
| 2026-05-06 04:27 | 40.79349 | 55.69220 | 34927 ft | 536 kts | 72° |
| 2026-05-06 04:28 | 40.81815 | 55.78495 | 34922 ft | 536 kts | 72° |
| 2026-05-06 04:28 | 40.84275 | 55.87779 | 34916 ft | 536 kts | 72° |
| 2026-05-06 04:29 | 40.86727 | 55.97071 | 34926 ft | 536 kts | 72° |
| 2026-05-06 04:29 | 40.89172 | 56.06367 | 34912 ft | 536 kts | 72° |
| 2026-05-06 04:30 | 40.91610 | 56.15674 | 34917 ft | 536 kts | 72° |
| 2026-05-06 04:30 | 40.94041 | 56.24991 | 34910 ft | 536 kts | 72° |
| 2026-05-06 04:31 | 40.96463 | 56.34311 | 34906 ft | 535 kts | 72° |
| 2026-05-06 04:31 | 40.98876 | 56.43624 | 34904 ft | 535 kts | 72° |
| 2026-05-06 04:32 | 41.01045 | 56.53025 | 34901 ft | 533 kts | 80° |
| 2026-05-06 04:32 | 41.02246 | 56.62673 | 34907 ft | 530 kts | 84° |
| 2026-05-06 04:33 | 41.03320 | 56.72344 | 34900 ft | 531 kts | 84° |
| 2026-05-06 04:33 | 41.04427 | 56.82010 | 34888 ft | 530 kts | 83° |
| 2026-05-06 04:34 | 41.05558 | 56.91654 | 34892 ft | 530 kts | 83° |
| 2026-05-06 04:34 | 41.06682 | 57.01238 | 34889 ft | 530 kts | 83° |
| 2026-05-06 04:35 | 41.07719 | 57.10174 | 34884 ft | 529 kts | 83° |
| 2026-05-06 04:35 | 41.08820 | 57.19748 | 34883 ft | 529 kts | 83° |
| 2026-05-06 04:36 | 41.09919 | 57.29386 | 34879 ft | 528 kts | 83° |
| 2026-05-06 04:36 | 41.11009 | 57.39020 | 34885 ft | 528 kts | 83° |
| 2026-05-06 04:37 | 41.12090 | 57.48643 | 34871 ft | 528 kts | 83° |
| 2026-05-06 04:37 | 41.13163 | 57.58267 | 34877 ft | 527 kts | 83° |
| 2026-05-06 04:38 | 41.14226 | 57.67882 | 34862 ft | 527 kts | 83° |
| 2026-05-06 04:38 | 41.15280 | 57.77492 | 34867 ft | 526 kts | 83° |
| 2026-05-06 04:39 | 41.16327 | 57.87109 | 34866 ft | 525 kts | 83° |
| 2026-05-06 04:39 | 41.17362 | 57.96696 | 34858 ft | 525 kts | 83° |
| 2026-05-06 04:40 | 41.18390 | 58.06282 | 34862 ft | 524 kts | 83° |
| 2026-05-06 04:40 | 41.19407 | 58.15858 | 34859 ft | 524 kts | 83° |
| 2026-05-06 04:41 | 41.20405 | 58.25364 | 34868 ft | 523 kts | 83° |
| 2026-05-06 04:41 | 41.21402 | 58.34943 | 34875 ft | 523 kts | 83° |
| 2026-05-06 04:42 | 41.22392 | 58.44519 | 34864 ft | 523 kts | 83° |
| 2026-05-06 04:42 | 41.23374 | 58.54101 | 34885 ft | 523 kts | 83° |
| 2026-05-06 04:43 | 41.24347 | 58.63678 | 34875 ft | 524 kts | 83° |
| 2026-05-06 04:43 | 41.25315 | 58.73278 | 34875 ft | 524 kts | 83° |
| 2026-05-06 04:44 | 41.26274 | 58.82878 | 34889 ft | 524 kts | 83° |
| 2026-05-06 04:44 | 41.27226 | 58.92485 | 34892 ft | 525 kts | 83° |
| 2026-05-06 04:45 | 41.28171 | 59.02104 | 34895 ft | 525 kts | 83° |
| 2026-05-06 04:45 | 41.29107 | 59.11727 | 34896 ft | 525 kts | 83° |
| 2026-05-06 04:45 | 41.29574 | 59.16558 | 35001 ft | 527 kts | 83° |
| 2026-05-06 04:46 | 41.30039 | 59.21389 | 35338 ft | 527 kts | 83° |
| 2026-05-06 04:46 | 41.30502 | 59.26215 | 35710 ft | 525 kts | 83° |
| 2026-05-06 04:46 | 41.30961 | 59.31027 | 36085 ft | 523 kts | 83° |
| 2026-05-06 04:46 | 41.31417 | 59.35826 | 36398 ft | 523 kts | 83° |
| 2026-05-06 04:47 | 41.31871 | 59.40633 | 36676 ft | 524 kts | 83° |
| 2026-05-06 04:47 | 41.32318 | 59.45378 | 36848 ft | 525 kts | 83° |
| 2026-05-06 04:47 | 41.32771 | 59.50218 | 36895 ft | 527 kts | 83° |
| 2026-05-06 04:48 | 41.33671 | 59.59875 | 36906 ft | 524 kts | 83° |
| 2026-05-06 04:48 | 41.34896 | 59.69395 | 36916 ft | 521 kts | 74° |
| 2026-05-06 04:49 | 41.37107 | 59.78527 | 36934 ft | 518 kts | 70° |
| 2026-05-06 04:49 | 41.39411 | 59.87617 | 36936 ft | 518 kts | 70° |
| 2026-05-06 04:50 | 41.41658 | 59.96751 | 36924 ft | 519 kts | 71° |
| 2026-05-06 04:50 | 41.43875 | 60.05912 | 36927 ft | 520 kts | 71° |
| 2026-05-06 04:51 | 41.46089 | 60.15087 | 36929 ft | 521 kts | 71° |
| 2026-05-06 04:51 | 41.47929 | 60.22740 | 36956 ft | 522 kts | 71° |
| 2026-05-06 04:52 | 41.50466 | 60.33542 | 36934 ft | 524 kts | 71° |
| 2026-05-06 04:52 | 41.52264 | 60.41251 | 36927 ft | 524 kts | 71° |
| 2026-05-06 04:53 | 41.54792 | 60.52098 | 36930 ft | 523 kts | 71° |
| 2026-05-06 04:53 | 41.56581 | 60.59798 | 36938 ft | 523 kts | 71° |
| 2026-05-06 04:54 | 41.58755 | 60.69061 | 36927 ft | 522 kts | 69° |
| 2026-05-06 04:54 | 41.61156 | 60.78190 | 36941 ft | 520 kts | 68° |
| 2026-05-06 04:55 | 41.63611 | 60.87281 | 36944 ft | 520 kts | 68° |
| 2026-05-06 04:55 | 41.66021 | 60.96386 | 36949 ft | 519 kts | 69° |
| 2026-05-06 04:56 | 41.68396 | 61.05501 | 36942 ft | 519 kts | 69° |
| 2026-05-06 04:56 | 41.70759 | 61.14623 | 36949 ft | 519 kts | 69° |
| 2026-05-06 04:57 | 41.73113 | 61.23739 | 36957 ft | 518 kts | 69° |
| 2026-05-06 04:57 | 41.75463 | 61.32861 | 36958 ft | 518 kts | 69° |
| 2026-05-06 04:58 | 41.77805 | 61.41986 | 36960 ft | 518 kts | 69° |
| 2026-05-06 04:58 | 41.80139 | 61.51118 | 36960 ft | 518 kts | 69° |
| 2026-05-06 04:59 | 41.82463 | 61.60247 | 36966 ft | 517 kts | 69° |
| 2026-05-06 04:59 | 41.84765 | 61.69319 | 36968 ft | 517 kts | 69° |
| 2026-05-06 05:00 | 41.87070 | 61.78448 | 36973 ft | 517 kts | 69° |
| 2026-05-06 05:00 | 41.89355 | 61.87589 | 36971 ft | 517 kts | 69° |
| 2026-05-06 05:01 | 41.91631 | 61.96737 | 36978 ft | 516 kts | 69° |
| 2026-05-06 05:01 | 41.93902 | 62.05883 | 36979 ft | 516 kts | 69° |
| 2026-05-06 05:02 | 41.96169 | 62.15042 | 36984 ft | 516 kts | 69° |
| 2026-05-06 05:02 | 41.98426 | 62.24191 | 36986 ft | 516 kts | 69° |
| 2026-05-06 05:03 | 42.00676 | 62.33349 | 36987 ft | 516 kts | 70° |
| 2026-05-06 05:03 | 42.02918 | 62.42506 | 36989 ft | 515 kts | 70° |
| 2026-05-06 05:04 | 42.05149 | 62.51659 | 37007 ft | 515 kts | 70° |
| 2026-05-06 05:04 | 42.07372 | 62.60814 | 36989 ft | 515 kts | 70° |
| 2026-05-06 05:05 | 42.09591 | 62.69975 | 36990 ft | 515 kts | 70° |
| 2026-05-06 05:05 | 42.11810 | 62.79146 | 36973 ft | 514 kts | 70° |
| 2026-05-06 05:06 | 42.14010 | 62.88313 | 36990 ft | 514 kts | 70° |
| 2026-05-06 05:06 | 42.16201 | 62.97481 | 36992 ft | 514 kts | 70° |
| 2026-05-06 05:07 | 42.18388 | 63.06638 | 36997 ft | 513 kts | 70° |
| 2026-05-06 05:07 | 42.20580 | 63.15797 | 36994 ft | 513 kts | 70° |
| 2026-05-06 05:08 | 42.22761 | 63.24945 | 36995 ft | 512 kts | 70° |
| 2026-05-06 05:08 | 42.24930 | 63.34092 | 37004 ft | 511 kts | 70° |
| 2026-05-06 05:09 | 42.27087 | 63.43224 | 37002 ft | 510 kts | 70° |
| 2026-05-06 05:09 | 42.29232 | 63.52345 | 37013 ft | 509 kts | 70° |
| 2026-05-06 05:10 | 42.31367 | 63.61458 | 37011 ft | 508 kts | 70° |
| 2026-05-06 05:10 | 42.33477 | 63.70501 | 37017 ft | 507 kts | 70° |
| 2026-05-06 05:11 | 42.35589 | 63.79588 | 37016 ft | 507 kts | 70° |
| 2026-05-06 05:11 | 42.37692 | 63.88677 | 37019 ft | 506 kts | 70° |
| 2026-05-06 05:12 | 42.39785 | 63.97752 | 37020 ft | 505 kts | 70° |
| 2026-05-06 05:12 | 42.41838 | 64.06826 | 37020 ft | 505 kts | 71° |
| 2026-05-06 05:13 | 42.43846 | 64.15924 | 37025 ft | 504 kts | 71° |
| 2026-05-06 05:13 | 42.45859 | 64.25013 | 37026 ft | 503 kts | 71° |
| 2026-05-06 05:14 | 42.47897 | 64.34074 | 37026 ft | 503 kts | 71° |
| 2026-05-06 05:14 | 42.49935 | 64.43125 | 37031 ft | 502 kts | 71° |
| 2026-05-06 05:15 | 42.51963 | 64.52183 | 37026 ft | 502 kts | 71° |
| 2026-05-06 05:15 | 42.53977 | 64.61238 | 37030 ft | 501 kts | 71° |
| 2026-05-06 05:15 | 42.54981 | 64.65763 | 36832 ft | 501 kts | 72° |
| 2026-05-06 05:16 | 42.55982 | 64.70290 | 36926 ft | 500 kts | 72° |
| 2026-05-06 05:16 | 42.57963 | 64.79271 | 37026 ft | 501 kts | 72° |
| 2026-05-06 05:17 | 42.59959 | 64.88360 | 37037 ft | 504 kts | 72° |
| 2026-05-06 05:17 | 42.61962 | 64.97516 | 37039 ft | 507 kts | 72° |
| 2026-05-06 05:18 | 42.63963 | 65.06706 | 37037 ft | 508 kts | 72° |
| 2026-05-06 05:18 | 42.65961 | 65.15924 | 37032 ft | 508 kts | 72° |
| 2026-05-06 05:19 | 42.67948 | 65.25131 | 37029 ft | 507 kts | 72° |
| 2026-05-06 05:19 | 42.69920 | 65.34305 | 37026 ft | 505 kts | 72° |
| 2026-05-06 05:20 | 42.71876 | 65.43443 | 37032 ft | 502 kts | 72° |
| 2026-05-06 05:20 | 42.73816 | 65.52548 | 37030 ft | 500 kts | 72° |
| 2026-05-06 05:21 | 42.75741 | 65.61623 | 37026 ft | 499 kts | 71° |
| 2026-05-06 05:21 | 42.77656 | 65.70683 | 37026 ft | 498 kts | 71° |
| 2026-05-06 05:22 | 42.79550 | 65.79676 | 37030 ft | 497 kts | 71° |
| 2026-05-06 05:22 | 42.81481 | 65.88787 | 37031 ft | 497 kts | 71° |
| 2026-05-06 05:23 | 42.83380 | 65.97771 | 37030 ft | 497 kts | 71° |
| 2026-05-06 05:23 | 42.86233 | 66.11373 | 37033 ft | 498 kts | 72° |
| 2026-05-06 05:24 | 42.88085 | 66.20479 | 37034 ft | 498 kts | 72° |
| 2026-05-06 05:24 | 42.89916 | 66.29590 | 37034 ft | 498 kts | 72° |
| 2026-05-06 05:25 | 42.91747 | 66.38705 | 37029 ft | 498 kts | 72° |
| 2026-05-06 05:25 | 42.93574 | 66.47823 | 37031 ft | 498 kts | 72° |
| 2026-05-06 05:26 | 42.95392 | 66.56935 | 37031 ft | 498 kts | 72° |
| 2026-05-06 05:26 | 42.97219 | 66.66042 | 37034 ft | 497 kts | 72° |
| 2026-05-06 05:27 | 42.99064 | 66.75130 | 37037 ft | 497 kts | 72° |
| 2026-05-06 05:27 | 43.00886 | 66.84227 | 37040 ft | 496 kts | 72° |
| 2026-05-06 05:28 | 43.02685 | 66.93330 | 37034 ft | 496 kts | 72° |
| 2026-05-06 05:28 | 43.04475 | 67.02428 | 37043 ft | 496 kts | 72° |
| 2026-05-06 05:29 | 43.06263 | 67.11539 | 37049 ft | 496 kts | 72° |
| 2026-05-06 05:29 | 43.08044 | 67.20656 | 37045 ft | 496 kts | 72° |
| 2026-05-06 05:30 | 43.09806 | 67.29719 | 37051 ft | 496 kts | 72° |
| 2026-05-06 05:30 | 43.11574 | 67.38853 | 37048 ft | 497 kts | 72° |
| 2026-05-06 05:31 | 43.13336 | 67.48000 | 37058 ft | 497 kts | 72° |
| 2026-05-06 05:31 | 43.15086 | 67.57165 | 37066 ft | 498 kts | 72° |
| 2026-05-06 05:32 | 43.16831 | 67.66341 | 37057 ft | 498 kts | 72° |
| 2026-05-06 05:32 | 43.18572 | 67.75533 | 37055 ft | 499 kts | 72° |
| 2026-05-06 05:33 | 43.20309 | 67.84738 | 37059 ft | 499 kts | 72° |
| 2026-05-06 05:33 | 43.22047 | 67.93948 | 37055 ft | 499 kts | 72° |
| 2026-05-06 05:34 | 43.23778 | 68.03169 | 37058 ft | 499 kts | 72° |
| 2026-05-06 05:34 | 43.25500 | 68.12386 | 37056 ft | 499 kts | 72° |
| 2026-05-06 05:35 | 43.27215 | 68.21617 | 37059 ft | 499 kts | 72° |
| 2026-05-06 05:35 | 43.28922 | 68.30840 | 37059 ft | 499 kts | 71° |
| 2026-05-06 05:36 | 43.30482 | 68.40122 | 37064 ft | 501 kts | 76° |
| 2026-05-06 05:36 | 43.31599 | 68.49565 | 37072 ft | 501 kts | 77° |
| 2026-05-06 05:37 | 43.32720 | 68.58946 | 37065 ft | 501 kts | 77° |
| 2026-05-06 05:37 | 43.33614 | 68.68449 | 37070 ft | 502 kts | 80° |
| 2026-05-06 05:38 | 43.34351 | 68.77989 | 37070 ft | 502 kts | 80° |
| 2026-05-06 05:38 | 43.35123 | 68.87522 | 37071 ft | 502 kts | 79° |
| 2026-05-06 05:39 | 43.35921 | 68.97051 | 37074 ft | 502 kts | 79° |
| 2026-05-06 05:39 | 43.36714 | 69.06574 | 37071 ft | 502 kts | 79° |
| 2026-05-06 05:40 | 43.37496 | 69.16107 | 37077 ft | 501 kts | 79° |
| 2026-05-06 05:40 | 43.38298 | 69.25619 | 37071 ft | 501 kts | 79° |
| 2026-05-06 05:41 | 43.39128 | 69.35134 | 37076 ft | 501 kts | 79° |
| 2026-05-06 05:41 | 43.39947 | 69.44648 | 37076 ft | 501 kts | 79° |
| 2026-05-06 05:42 | 43.40616 | 69.52555 | 37073 ft | 501 kts | 79° |
| 2026-05-06 05:42 | 43.41413 | 69.62068 | 37082 ft | 500 kts | 79° |
| 2026-05-06 05:43 | 43.42202 | 69.71573 | 37074 ft | 500 kts | 79° |
| 2026-05-06 05:43 | 43.42992 | 69.81061 | 37081 ft | 499 kts | 79° |
| 2026-05-06 05:44 | 43.43802 | 69.90535 | 37086 ft | 498 kts | 79° |
| 2026-05-06 05:44 | 43.44606 | 69.99992 | 37071 ft | 497 kts | 79° |
| 2026-05-06 05:45 | 43.45397 | 70.09431 | 37082 ft | 496 kts | 79° |
| 2026-05-06 05:45 | 43.46176 | 70.18851 | 37070 ft | 495 kts | 79° |
| 2026-05-06 05:46 | 43.46941 | 70.28196 | 37079 ft | 494 kts | 80° |
| 2026-05-06 05:46 | 43.47701 | 70.37584 | 37068 ft | 493 kts | 80° |
| 2026-05-06 05:47 | 43.48454 | 70.46969 | 37071 ft | 493 kts | 80° |
| 2026-05-06 05:47 | 43.49198 | 70.56346 | 37072 ft | 492 kts | 81° |
| 2026-05-06 05:48 | 43.49934 | 70.65721 | 37073 ft | 492 kts | 81° |
| 2026-05-06 05:48 | 43.50663 | 70.75094 | 37072 ft | 492 kts | 81° |
| 2026-05-06 05:49 | 43.51385 | 70.84478 | 37072 ft | 492 kts | 81° |
| 2026-05-06 05:49 | 43.52094 | 70.93855 | 37073 ft | 493 kts | 82° |
| 2026-05-06 05:50 | 43.52791 | 71.03256 | 37074 ft | 493 kts | 82° |
| 2026-05-06 05:50 | 43.53481 | 71.12664 | 37075 ft | 493 kts | 82° |
| 2026-05-06 05:51 | 43.54164 | 71.22068 | 37075 ft | 493 kts | 82° |
| 2026-05-06 05:51 | 43.54840 | 71.31482 | 37075 ft | 493 kts | 82° |
| 2026-05-06 05:52 | 43.55508 | 71.40893 | 37071 ft | 493 kts | 82° |
| 2026-05-06 05:52 | 43.56169 | 71.50308 | 37068 ft | 493 kts | 82° |
| 2026-05-06 05:53 | 43.56817 | 71.59649 | 37068 ft | 493 kts | 82° |
| 2026-05-06 05:53 | 43.57461 | 71.69055 | 37064 ft | 492 kts | 82° |
| 2026-05-06 05:54 | 43.58097 | 71.78446 | 37063 ft | 492 kts | 83° |
| 2026-05-06 05:54 | 43.58725 | 71.87842 | 37066 ft | 491 kts | 83° |
| 2026-05-06 05:55 | 43.59343 | 71.97212 | 37065 ft | 490 kts | 83° |
| 2026-05-06 05:55 | 43.59953 | 72.06572 | 37061 ft | 490 kts | 83° |
| 2026-05-06 05:56 | 43.60555 | 72.15930 | 37061 ft | 489 kts | 83° |
| 2026-05-06 05:56 | 43.61149 | 72.25276 | 37067 ft | 489 kts | 83° |
| 2026-05-06 05:57 | 43.61736 | 72.34624 | 37065 ft | 489 kts | 83° |
| 2026-05-06 05:57 | 43.62314 | 72.43965 | 37070 ft | 489 kts | 83° |
| 2026-05-06 05:58 | 43.62884 | 72.53313 | 37067 ft | 489 kts | 84° |
| 2026-05-06 05:58 | 43.63448 | 72.62672 | 37059 ft | 489 kts | 84° |
| 2026-05-06 05:59 | 43.64003 | 72.72027 | 37064 ft | 489 kts | 84° |
| 2026-05-06 05:59 | 43.64552 | 72.81389 | 37064 ft | 489 kts | 84° |
| 2026-05-06 06:00 | 43.65092 | 72.90745 | 37064 ft | 489 kts | 84° |
| 2026-05-06 06:00 | 43.65625 | 73.00112 | 37069 ft | 489 kts | 84° |
| 2026-05-06 06:01 | 43.66151 | 73.09486 | 37061 ft | 490 kts | 84° |
| 2026-05-06 06:01 | 43.66665 | 73.18793 | 37061 ft | 490 kts | 84° |
| 2026-05-06 06:02 | 43.67176 | 73.28176 | 37058 ft | 490 kts | 84° |
| 2026-05-06 06:02 | 43.67679 | 73.37552 | 37061 ft | 490 kts | 85° |
| 2026-05-06 06:03 | 43.68174 | 73.46941 | 37062 ft | 489 kts | 85° |
| 2026-05-06 06:03 | 43.68662 | 73.56317 | 37052 ft | 489 kts | 85° |
| 2026-05-06 06:04 | 43.69142 | 73.65689 | 37060 ft | 489 kts | 85° |
| 2026-05-06 06:04 | 43.69586 | 73.75068 | 37073 ft | 489 kts | 88° |
| 2026-05-06 06:05 | 43.69408 | 73.84458 | 37068 ft | 489 kts | 92° |
| 2026-05-06 06:05 | 43.69085 | 73.93847 | 37062 ft | 489 kts | 92° |
| 2026-05-06 06:06 | 43.68795 | 74.03238 | 37070 ft | 489 kts | 92° |
| 2026-05-06 06:06 | 43.68521 | 74.12612 | 37064 ft | 488 kts | 92° |
| 2026-05-06 06:07 | 43.68238 | 74.21981 | 37069 ft | 488 kts | 92° |
| 2026-05-06 06:07 | 43.67953 | 74.31348 | 37075 ft | 488 kts | 92° |
| 2026-05-06 06:08 | 43.67665 | 74.40699 | 37076 ft | 487 kts | 92° |
| 2026-05-06 06:08 | 43.67370 | 74.50045 | 37075 ft | 487 kts | 92° |
| 2026-05-06 06:09 | 43.67068 | 74.59328 | 37082 ft | 487 kts | 92° |
| 2026-05-06 06:09 | 43.66754 | 74.68730 | 37079 ft | 487 kts | 92° |
| 2026-05-06 06:10 | 43.66438 | 74.77997 | 37067 ft | 486 kts | 92° |
| 2026-05-06 06:10 | 43.66112 | 74.87315 | 37079 ft | 486 kts | 92° |
| 2026-05-06 06:11 | 43.65778 | 74.96638 | 37078 ft | 486 kts | 92° |
| 2026-05-06 06:11 | 43.65437 | 75.05955 | 37063 ft | 486 kts | 93° |
| 2026-05-06 06:12 | 43.65088 | 75.15275 | 37066 ft | 486 kts | 93° |
| 2026-05-06 06:12 | 43.64732 | 75.24582 | 37063 ft | 486 kts | 93° |
| 2026-05-06 06:13 | 43.64369 | 75.33900 | 37071 ft | 486 kts | 93° |
| 2026-05-06 06:13 | 43.63998 | 75.43209 | 37058 ft | 486 kts | 93° |
| 2026-05-06 06:14 | 43.63620 | 75.52521 | 37069 ft | 486 kts | 93° |
| 2026-05-06 06:14 | 43.63229 | 75.61840 | 37069 ft | 486 kts | 93° |
| 2026-05-06 06:15 | 43.62827 | 75.71155 | 37076 ft | 486 kts | 93° |
| 2026-05-06 06:15 | 43.62419 | 75.80473 | 37076 ft | 487 kts | 93° |
| 2026-05-06 06:16 | 43.62003 | 75.89800 | 37073 ft | 487 kts | 93° |
| 2026-05-06 06:16 | 43.61580 | 75.99121 | 37063 ft | 487 kts | 94° |
| 2026-05-06 06:17 | 43.61150 | 76.08443 | 37073 ft | 486 kts | 94° |
| 2026-05-06 06:17 | 43.60716 | 76.17689 | 37069 ft | 486 kts | 94° |
| 2026-05-06 06:18 | 43.60273 | 76.26996 | 37075 ft | 486 kts | 94° |
| 2026-05-06 06:18 | 43.59935 | 76.36311 | 37067 ft | 486 kts | 90° |
| 2026-05-06 06:19 | 43.59921 | 76.45621 | 37073 ft | 486 kts | 90° |
| 2026-05-06 06:19 | 43.59927 | 76.54935 | 37067 ft | 485 kts | 90° |
| 2026-05-06 06:20 | 43.59894 | 76.64245 | 37067 ft | 485 kts | 90° |
| 2026-05-06 06:20 | 43.59844 | 76.73549 | 37090 ft | 485 kts | 90° |
| 2026-05-06 06:21 | 43.59785 | 76.82846 | 37090 ft | 485 kts | 91° |
| 2026-05-06 06:21 | 43.59658 | 76.92144 | 37085 ft | 485 kts | 91° |
| 2026-05-06 06:22 | 43.59538 | 77.01443 | 37088 ft | 485 kts | 91° |
| 2026-05-06 06:22 | 43.59455 | 77.10741 | 37086 ft | 485 kts | 91° |
| 2026-05-06 06:23 | 43.59316 | 77.20036 | 37085 ft | 484 kts | 92° |
| 2026-05-06 06:23 | 43.58982 | 77.29313 | 37093 ft | 484 kts | 93° |
| 2026-05-06 06:24 | 43.58633 | 77.38579 | 37092 ft | 483 kts | 93° |
| 2026-05-06 06:24 | 43.58309 | 77.47831 | 37084 ft | 483 kts | 93° |
| 2026-05-06 06:25 | 43.58056 | 77.57078 | 37090 ft | 483 kts | 91° |
| 2026-05-06 06:26 | 43.57928 | 77.70977 | 37083 ft | 483 kts | 91° |
| 2026-05-06 06:26 | 43.57814 | 77.80232 | 37086 ft | 483 kts | 91° |
| 2026-05-06 06:27 | 43.57675 | 77.89489 | 37080 ft | 483 kts | 91° |
| 2026-05-06 06:27 | 43.57529 | 77.98765 | 37093 ft | 484 kts | 91° |
| 2026-05-06 06:28 | 43.57378 | 78.07988 | 37084 ft | 485 kts | 91° |
| 2026-05-06 06:28 | 43.57222 | 78.17283 | 37083 ft | 485 kts | 91° |
| 2026-05-06 06:29 | 43.57062 | 78.26595 | 37075 ft | 486 kts | 91° |
| 2026-05-06 06:29 | 43.56894 | 78.35925 | 37084 ft | 487 kts | 91° |
| 2026-05-06 06:30 | 43.56717 | 78.45269 | 37076 ft | 488 kts | 91° |
| 2026-05-06 06:30 | 43.56532 | 78.54621 | 37075 ft | 488 kts | 91° |
| 2026-05-06 06:31 | 43.56340 | 78.63965 | 37069 ft | 488 kts | 91° |
| 2026-05-06 06:31 | 43.56173 | 78.71788 | 37072 ft | 486 kts | 91° |
| 2026-05-06 06:32 | 43.55969 | 78.81094 | 37070 ft | 485 kts | 91° |
| 2026-05-06 06:32 | 43.55759 | 78.90314 | 37064 ft | 483 kts | 91° |
| 2026-05-06 06:33 | 43.55539 | 78.99566 | 37071 ft | 482 kts | 91° |
| 2026-05-06 06:33 | 43.55314 | 79.08752 | 37061 ft | 475 kts | 91° |
| 2026-05-06 06:34 | 43.55085 | 79.17888 | 37077 ft | 478 kts | 91° |
| 2026-05-06 06:34 | 43.54848 | 79.27012 | 37067 ft | 475 kts | 91° |
| 2026-05-06 06:35 | 43.54602 | 79.36120 | 37075 ft | 475 kts | 91° |
| 2026-05-06 06:35 | 43.54349 | 79.45218 | 37075 ft | 474 kts | 91° |
| 2026-05-06 06:36 | 43.54091 | 79.54283 | 37076 ft | 473 kts | 91° |
| 2026-05-06 06:36 | 43.53825 | 79.63391 | 37086 ft | 478 kts | 91° |
| 2026-05-06 06:37 | 43.53550 | 79.72583 | 37091 ft | 482 kts | 91° |
| 2026-05-06 06:37 | 43.53265 | 79.81861 | 37087 ft | 487 kts | 92° |
| 2026-05-06 06:38 | 43.52965 | 79.91182 | 37078 ft | 485 kts | 92° |
| 2026-05-06 06:38 | 43.52658 | 80.00431 | 37071 ft | 481 kts | 92° |
| 2026-05-06 06:39 | 43.52351 | 80.09522 | 37072 ft | 476 kts | 92° |
| 2026-05-06 06:39 | 43.52038 | 80.18610 | 37083 ft | 474 kts | 92° |
| 2026-05-06 06:40 | 43.51718 | 80.27686 | 37087 ft | 475 kts | 92° |
| 2026-05-06 06:40 | 43.51389 | 80.36797 | 37088 ft | 477 kts | 92° |
| 2026-05-06 06:41 | 43.51052 | 80.45935 | 37093 ft | 478 kts | 92° |
| 2026-05-06 06:41 | 43.50707 | 80.55085 | 37096 ft | 479 kts | 92° |
| 2026-05-06 06:42 | 43.50355 | 80.64266 | 37089 ft | 480 kts | 92° |
| 2026-05-06 06:42 | 43.49994 | 80.73454 | 37092 ft | 480 kts | 92° |
| 2026-05-06 06:43 | 43.49792 | 80.82637 | 37087 ft | 479 kts | 90° |
| 2026-05-06 06:43 | 43.49702 | 80.91812 | 37088 ft | 478 kts | 90° |
| 2026-05-06 06:44 | 43.49590 | 81.00947 | 37092 ft | 477 kts | 90° |
| 2026-05-06 06:44 | 43.49445 | 81.10060 | 37090 ft | 475 kts | 90° |
| 2026-05-06 06:45 | 43.49288 | 81.19150 | 37087 ft | 474 kts | 90° |
| 2026-05-06 06:45 | 43.49124 | 81.28224 | 37089 ft | 474 kts | 90° |
| 2026-05-06 06:46 | 43.48955 | 81.37286 | 37085 ft | 473 kts | 90° |
| 2026-05-06 06:46 | 43.48779 | 81.46328 | 37080 ft | 472 kts | 90° |
| 2026-05-06 06:47 | 43.48596 | 81.55358 | 37085 ft | 472 kts | 90° |
| 2026-05-06 06:47 | 43.48407 | 81.64386 | 37083 ft | 472 kts | 90° |
| 2026-05-06 06:48 | 43.48209 | 81.73413 | 37070 ft | 472 kts | 90° |
| 2026-05-06 06:48 | 43.47992 | 81.82449 | 37076 ft | 472 kts | 91° |
| 2026-05-06 06:49 | 43.47770 | 81.91426 | 37064 ft | 472 kts | 91° |
| 2026-05-06 06:49 | 43.47541 | 82.00451 | 37070 ft | 472 kts | 91° |
| 2026-05-06 06:50 | 43.47307 | 82.09470 | 37073 ft | 471 kts | 91° |
| 2026-05-06 06:50 | 43.47066 | 82.18486 | 37075 ft | 471 kts | 91° |
| 2026-05-06 06:51 | 43.46817 | 82.27499 | 37065 ft | 471 kts | 91° |
| 2026-05-06 06:51 | 43.46561 | 82.36509 | 37063 ft | 471 kts | 91° |
| 2026-05-06 06:52 | 43.46299 | 82.45518 | 37066 ft | 471 kts | 91° |
| 2026-05-06 06:52 | 43.46028 | 82.54524 | 37067 ft | 471 kts | 91° |
| 2026-05-06 06:53 | 43.45750 | 82.63527 | 37072 ft | 471 kts | 91° |
| 2026-05-06 06:53 | 43.45468 | 82.72530 | 37078 ft | 471 kts | 91° |
| 2026-05-06 06:54 | 43.45178 | 82.81527 | 37080 ft | 471 kts | 91° |
| 2026-05-06 06:54 | 43.44880 | 82.90527 | 37087 ft | 471 kts | 92° |
| 2026-05-06 06:55 | 43.44574 | 82.99530 | 37085 ft | 471 kts | 91° |
| 2026-05-06 06:55 | 43.44262 | 83.08537 | 37094 ft | 471 kts | 92° |
| 2026-05-06 06:56 | 43.43943 | 83.17539 | 37105 ft | 471 kts | 92° |
| 2026-05-06 06:56 | 43.43617 | 83.26545 | 37108 ft | 471 kts | 92° |
| 2026-05-06 06:57 | 43.43288 | 83.35489 | 37110 ft | 471 kts | 92° |
| 2026-05-06 06:57 | 43.42706 | 83.44470 | 37115 ft | 471 kts | 96° |
| 2026-05-06 06:58 | 43.41927 | 83.53421 | 37142 ft | 471 kts | 96° |
| 2026-05-06 06:58 | 43.41142 | 83.62372 | 37136 ft | 472 kts | 96° |
| 2026-05-06 06:59 | 43.40371 | 83.71330 | 37148 ft | 472 kts | 96° |
| 2026-05-06 06:59 | 43.39600 | 83.80287 | 37137 ft | 472 kts | 96° |
| 2026-05-06 07:00 | 43.38824 | 83.89235 | 37151 ft | 471 kts | 96° |
| 2026-05-06 07:00 | 43.38041 | 83.98175 | 37169 ft | 471 kts | 96° |
| 2026-05-06 07:01 | 43.37250 | 84.07109 | 37174 ft | 471 kts | 96° |
| 2026-05-06 07:01 | 43.36452 | 84.16036 | 37170 ft | 471 kts | 96° |
| 2026-05-06 07:02 | 43.35648 | 84.24964 | 37190 ft | 471 kts | 96° |
| 2026-05-06 07:02 | 43.34839 | 84.33888 | 37193 ft | 471 kts | 96° |
| 2026-05-06 07:03 | 43.34011 | 84.42812 | 37195 ft | 471 kts | 96° |
| 2026-05-06 07:03 | 43.33159 | 84.51734 | 37197 ft | 471 kts | 96° |
| 2026-05-06 07:04 | 43.32300 | 84.60646 | 37212 ft | 471 kts | 96° |
| 2026-05-06 07:04 | 43.31438 | 84.69558 | 37221 ft | 471 kts | 96° |
| 2026-05-06 07:05 | 43.30571 | 84.78466 | 37218 ft | 471 kts | 96° |
| 2026-05-06 07:05 | 43.29701 | 84.87321 | 37218 ft | 471 kts | 96° |
| 2026-05-06 07:06 | 43.28821 | 84.96204 | 37232 ft | 470 kts | 96° |
| 2026-05-06 07:06 | 43.27936 | 85.05084 | 37254 ft | 469 kts | 96° |
| 2026-05-06 07:07 | 43.27043 | 85.13961 | 37232 ft | 469 kts | 96° |
| 2026-05-06 07:07 | 43.26143 | 85.22813 | 37240 ft | 469 kts | 96° |
| 2026-05-06 07:08 | 43.25238 | 85.31678 | 37234 ft | 469 kts | 96° |
| 2026-05-06 07:08 | 43.24325 | 85.40543 | 37229 ft | 469 kts | 96° |
| 2026-05-06 07:09 | 43.23407 | 85.49385 | 37230 ft | 468 kts | 97° |
| 2026-05-06 07:09 | 43.22482 | 85.58208 | 37237 ft | 467 kts | 96° |
| 2026-05-06 07:10 | 43.21554 | 85.67032 | 37238 ft | 468 kts | 96° |
| 2026-05-06 07:10 | 43.20618 | 85.75851 | 37245 ft | 468 kts | 96° |
| 2026-05-06 07:11 | 43.19674 | 85.84680 | 37246 ft | 468 kts | 96° |
| 2026-05-06 07:11 | 43.18922 | 85.93515 | 37232 ft | 465 kts | 86° |
| 2026-05-06 07:11 | 43.19390 | 85.97870 | 37255 ft | 461 kts | 73° |
| 2026-05-06 07:12 | 43.20485 | 86.01988 | 37246 ft | 459 kts | 62° |
| 2026-05-06 07:12 | 43.23980 | 86.09255 | 37259 ft | 458 kts | 54° |
| 2026-05-06 07:13 | 43.27600 | 86.16466 | 37265 ft | 460 kts | 55° |
| 2026-05-06 07:13 | 43.31130 | 86.23747 | 37271 ft | 462 kts | 55° |
| 2026-05-06 07:14 | 43.34691 | 86.31099 | 37270 ft | 462 kts | 55° |
| 2026-05-06 07:14 | 43.38255 | 86.38461 | 37269 ft | 462 kts | 55° |
| 2026-05-06 07:15 | 43.41809 | 86.45820 | 37261 ft | 461 kts | 55° |
| 2026-05-06 07:15 | 43.45368 | 86.53158 | 37256 ft | 460 kts | 55° |
| 2026-05-06 07:16 | 43.48925 | 86.60478 | 37247 ft | 460 kts | 55° |
| 2026-05-06 07:16 | 43.52471 | 86.67806 | 37237 ft | 459 kts | 55° |
| 2026-05-06 07:17 | 43.55999 | 86.75137 | 37232 ft | 459 kts | 56° |
| 2026-05-06 07:17 | 43.59499 | 86.82507 | 37224 ft | 459 kts | 56° |
| 2026-05-06 07:18 | 43.62990 | 86.89881 | 37223 ft | 458 kts | 56° |
| 2026-05-06 07:18 | 43.66475 | 86.97251 | 37216 ft | 458 kts | 56° |
| 2026-05-06 07:19 | 43.69952 | 87.04619 | 37185 ft | 458 kts | 56° |
| 2026-05-06 07:19 | 43.72837 | 87.10746 | 37199 ft | 457 kts | 56° |
| 2026-05-06 07:20 | 43.76880 | 87.19382 | 37181 ft | 458 kts | 56° |
| 2026-05-06 07:20 | 43.79745 | 87.25537 | 37192 ft | 458 kts | 56° |
| 2026-05-06 07:21 | 43.83195 | 87.32965 | 37182 ft | 459 kts | 56° |
| 2026-05-06 07:21 | 43.86642 | 87.40403 | 37184 ft | 459 kts | 56° |
| 2026-05-06 07:22 | 43.90091 | 87.47858 | 37179 ft | 459 kts | 56° |
| 2026-05-06 07:22 | 43.93741 | 87.55113 | 37198 ft | 458 kts | 52° |
| 2026-05-06 07:23 | 43.97619 | 87.62128 | 37183 ft | 458 kts | 51° |
| 2026-05-06 07:23 | 44.01494 | 87.69159 | 37175 ft | 458 kts | 52° |
| 2026-05-06 07:24 | 44.05345 | 87.76221 | 37175 ft | 458 kts | 52° |
| 2026-05-06 07:24 | 44.09180 | 87.83287 | 37171 ft | 458 kts | 52° |
| 2026-05-06 07:25 | 44.13018 | 87.90372 | 37168 ft | 458 kts | 52° |
| 2026-05-06 07:25 | 44.16460 | 87.97820 | 37173 ft | 460 kts | 63° |
| 2026-05-06 07:26 | 44.18601 | 88.06222 | 37171 ft | 463 kts | 76° |
| 2026-05-06 07:26 | 44.19906 | 88.15018 | 37166 ft | 464 kts | 77° |
| 2026-05-06 07:27 | 44.21155 | 88.23828 | 37174 ft | 464 kts | 77° |
| 2026-05-06 07:27 | 44.22427 | 88.32585 | 37166 ft | 464 kts | 76° |
| 2026-05-06 07:28 | 44.23723 | 88.41385 | 37162 ft | 464 kts | 76° |
| 2026-05-06 07:28 | 44.25665 | 88.54599 | 37151 ft | 463 kts | 76° |
| 2026-05-06 07:29 | 44.26949 | 88.63406 | 37141 ft | 463 kts | 77° |
| 2026-05-06 07:29 | 44.28225 | 88.72223 | 37137 ft | 463 kts | 77° |
| 2026-05-06 07:30 | 44.29495 | 88.81039 | 37129 ft | 463 kts | 77° |
| 2026-05-06 07:30 | 44.30758 | 88.89866 | 37126 ft | 464 kts | 77° |
| 2026-05-06 07:31 | 44.32014 | 88.98687 | 37123 ft | 463 kts | 77° |
| 2026-05-06 07:31 | 44.33264 | 89.07525 | 37111 ft | 464 kts | 77° |
| 2026-05-06 07:32 | 44.34507 | 89.16357 | 37113 ft | 463 kts | 77° |
| 2026-05-06 07:32 | 44.35742 | 89.25190 | 37108 ft | 463 kts | 77° |
| 2026-05-06 07:33 | 44.36971 | 89.34036 | 37109 ft | 463 kts | 77° |
| 2026-05-06 07:33 | 44.38193 | 89.42878 | 37102 ft | 463 kts | 77° |
| 2026-05-06 07:34 | 44.39409 | 89.51725 | 37101 ft | 463 kts | 77° |
| 2026-05-06 07:34 | 44.40618 | 89.60580 | 37099 ft | 464 kts | 77° |
| 2026-05-06 07:35 | 44.41128 | 89.69568 | 37095 ft | 468 kts | 91° |
| 2026-05-06 07:35 | 44.39942 | 89.78528 | 37099 ft | 472 kts | 104° |
| 2026-05-06 07:36 | 44.37998 | 89.87238 | 37098 ft | 473 kts | 105° |
| 2026-05-06 07:36 | 44.35999 | 89.96063 | 37097 ft | 473 kts | 105° |
| 2026-05-06 07:37 | 44.34064 | 90.04791 | 37084 ft | 473 kts | 105° |
| 2026-05-06 07:37 | 44.32132 | 90.13579 | 37095 ft | 474 kts | 105° |
| 2026-05-06 07:38 | 44.30197 | 90.22367 | 37095 ft | 474 kts | 105° |
| 2026-05-06 07:38 | 44.28253 | 90.31149 | 37093 ft | 474 kts | 105° |
| 2026-05-06 07:39 | 44.26301 | 90.39926 | 37098 ft | 474 kts | 105° |
| 2026-05-06 07:39 | 44.24342 | 90.48696 | 37097 ft | 473 kts | 105° |
| 2026-05-06 07:40 | 44.22376 | 90.57462 | 37104 ft | 473 kts | 105° |
| 2026-05-06 07:40 | 44.20405 | 90.66218 | 37102 ft | 474 kts | 105° |
| 2026-05-06 07:41 | 44.18424 | 90.74977 | 37105 ft | 474 kts | 105° |
| 2026-05-06 07:41 | 44.16438 | 90.83729 | 37108 ft | 474 kts | 105° |
| 2026-05-06 07:42 | 44.14444 | 90.92480 | 37112 ft | 474 kts | 105° |
| 2026-05-06 07:42 | 44.12443 | 91.01233 | 37116 ft | 475 kts | 105° |
| 2026-05-06 07:43 | 44.10437 | 91.09985 | 37118 ft | 475 kts | 105° |
| 2026-05-06 07:43 | 44.08433 | 91.18739 | 37119 ft | 475 kts | 106° |
| 2026-05-06 07:44 | 44.06435 | 91.27429 | 37124 ft | 475 kts | 106° |
| 2026-05-06 07:44 | 44.04419 | 91.36173 | 37130 ft | 475 kts | 106° |
| 2026-05-06 07:45 | 44.02390 | 91.44916 | 37134 ft | 475 kts | 106° |
| 2026-05-06 07:45 | 44.00329 | 91.53644 | 37133 ft | 476 kts | 107° |
| 2026-05-06 07:46 | 43.98253 | 91.62372 | 37136 ft | 476 kts | 107° |
| 2026-05-06 07:46 | 43.96174 | 91.71099 | 37139 ft | 477 kts | 107° |
| 2026-05-06 07:47 | 43.94090 | 91.79831 | 37142 ft | 477 kts | 107° |
| 2026-05-06 07:47 | 43.91996 | 91.88565 | 37142 ft | 477 kts | 107° |
| 2026-05-06 07:48 | 43.89899 | 91.97281 | 37152 ft | 476 kts | 107° |
| 2026-05-06 07:48 | 43.87795 | 92.05989 | 37148 ft | 477 kts | 107° |
| 2026-05-06 07:49 | 43.85683 | 92.14696 | 37147 ft | 477 kts | 107° |
| 2026-05-06 07:49 | 43.83564 | 92.23405 | 37147 ft | 477 kts | 107° |
| 2026-05-06 07:50 | 43.81446 | 92.32074 | 37149 ft | 478 kts | 107° |
| 2026-05-06 07:50 | 43.79307 | 92.40793 | 37140 ft | 479 kts | 107° |
| 2026-05-06 07:51 | 43.77159 | 92.49516 | 37136 ft | 479 kts | 107° |
| 2026-05-06 07:51 | 43.75002 | 92.58246 | 37146 ft | 480 kts | 108° |
| 2026-05-06 07:52 | 43.72835 | 92.66982 | 37143 ft | 481 kts | 108° |
| 2026-05-06 07:52 | 43.70658 | 92.75724 | 37159 ft | 481 kts | 108° |
| 2026-05-06 07:53 | 43.68469 | 92.84482 | 37144 ft | 482 kts | 108° |
| 2026-05-06 07:53 | 43.66274 | 92.93240 | 37152 ft | 483 kts | 108° |
| 2026-05-06 07:54 | 43.64079 | 93.02012 | 37156 ft | 484 kts | 107° |
| 2026-05-06 07:54 | 43.61968 | 93.10830 | 37154 ft | 484 kts | 107° |
| 2026-05-06 07:55 | 43.59873 | 93.19658 | 37168 ft | 485 kts | 107° |
| 2026-05-06 07:55 | 43.57759 | 93.28490 | 37165 ft | 485 kts | 107° |
| 2026-05-06 07:56 | 43.55627 | 93.37323 | 37171 ft | 486 kts | 107° |
| 2026-05-06 07:56 | 43.53483 | 93.46159 | 37166 ft | 486 kts | 107° |
| 2026-05-06 07:57 | 43.51350 | 93.54921 | 37175 ft | 486 kts | 107° |
| 2026-05-06 07:57 | 43.49193 | 93.63744 | 37169 ft | 486 kts | 108° |
| 2026-05-06 07:58 | 43.47029 | 93.72566 | 37178 ft | 487 kts | 108° |
| 2026-05-06 07:58 | 43.44854 | 93.81399 | 37165 ft | 487 kts | 108° |
| 2026-05-06 07:59 | 43.42669 | 93.90236 | 37179 ft | 488 kts | 108° |
| 2026-05-06 07:59 | 43.40474 | 93.99081 | 37178 ft | 489 kts | 108° |
| 2026-05-06 08:00 | 43.38268 | 94.07938 | 37172 ft | 490 kts | 108° |
| 2026-05-06 08:00 | 43.36053 | 94.16792 | 37187 ft | 490 kts | 108° |
| 2026-05-06 08:01 | 43.33832 | 94.25644 | 37178 ft | 490 kts | 108° |
| 2026-05-06 08:01 | 43.31602 | 94.34493 | 37179 ft | 490 kts | 108° |
| 2026-05-06 08:02 | 43.29365 | 94.43337 | 37189 ft | 491 kts | 108° |
| 2026-05-06 08:02 | 43.27120 | 94.52180 | 37171 ft | 491 kts | 109° |
| 2026-05-06 08:03 | 43.24865 | 94.61029 | 37168 ft | 491 kts | 109° |
| 2026-05-06 08:03 | 43.22603 | 94.69873 | 37159 ft | 492 kts | 109° |
| 2026-05-06 08:04 | 43.20330 | 94.78725 | 37149 ft | 493 kts | 109° |
| 2026-05-06 08:04 | 43.18046 | 94.87589 | 37146 ft | 493 kts | 109° |
| 2026-05-06 08:05 | 43.15757 | 94.96448 | 37132 ft | 494 kts | 109° |
| 2026-05-06 08:05 | 43.13222 | 95.05101 | 37117 ft | 493 kts | 121° |
| 2026-05-06 08:06 | 43.08848 | 95.12239 | 37132 ft | 491 kts | 142° |
| 2026-05-06 08:06 | 43.03250 | 95.17545 | 37126 ft | 490 kts | 148° |
| 2026-05-06 08:07 | 42.97542 | 95.22678 | 37108 ft | 492 kts | 148° |
| 2026-05-06 08:07 | 42.91844 | 95.27894 | 37102 ft | 494 kts | 147° |
| 2026-05-06 08:08 | 42.87075 | 95.32308 | 37099 ft | 495 kts | 147° |
| 2026-05-06 08:08 | 42.80454 | 95.38440 | 37108 ft | 495 kts | 148° |
| 2026-05-06 08:09 | 42.75721 | 95.42812 | 37087 ft | 495 kts | 148° |
| 2026-05-06 08:09 | 42.70029 | 95.48052 | 37080 ft | 494 kts | 148° |
| 2026-05-06 08:10 | 42.64332 | 95.53285 | 37093 ft | 494 kts | 148° |
| 2026-05-06 08:10 | 42.58641 | 95.58502 | 37079 ft | 493 kts | 148° |
| 2026-05-06 08:11 | 42.52951 | 95.63705 | 37096 ft | 493 kts | 149° |
| 2026-05-06 08:11 | 42.47262 | 95.68896 | 37093 ft | 493 kts | 149° |
| 2026-05-06 08:12 | 42.41567 | 95.74083 | 37077 ft | 493 kts | 149° |
| 2026-05-06 08:12 | 42.35872 | 95.79283 | 37095 ft | 494 kts | 149° |
| 2026-05-06 08:13 | 42.30200 | 95.84551 | 37102 ft | 495 kts | 149° |
| 2026-05-06 08:13 | 42.24528 | 95.89823 | 37098 ft | 495 kts | 149° |
| 2026-05-06 08:14 | 42.18843 | 95.95081 | 37109 ft | 496 kts | 149° |
| 2026-05-06 08:14 | 42.13152 | 96.00327 | 37115 ft | 496 kts | 149° |
| 2026-05-06 08:15 | 42.07446 | 96.05575 | 37118 ft | 496 kts | 149° |
| 2026-05-06 08:15 | 42.01743 | 96.10809 | 37127 ft | 497 kts | 149° |
| 2026-05-06 08:16 | 41.96027 | 96.16047 | 37120 ft | 497 kts | 150° |
| 2026-05-06 08:16 | 41.90491 | 96.21606 | 37101 ft | 502 kts | 135° |
| 2026-05-06 08:17 | 41.88498 | 96.25476 | 37124 ft | 509 kts | 118° |
| 2026-05-06 08:17 | 41.87317 | 96.29904 | 37131 ft | 514 kts | 103° |
| 2026-05-06 08:17 | 41.87024 | 96.34663 | 37123 ft | 512 kts | 88° |
| 2026-05-06 08:17 | 41.87157 | 96.39446 | 37133 ft | 514 kts | 87° |
| 2026-05-06 08:18 | 41.87443 | 96.49071 | 37133 ft | 518 kts | 88° |
| 2026-05-06 08:18 | 41.87655 | 96.58827 | 37126 ft | 521 kts | 89° |
| 2026-05-06 08:19 | 41.87801 | 96.68493 | 37119 ft | 523 kts | 89° |
| 2026-05-06 08:19 | 41.87924 | 96.78251 | 37110 ft | 523 kts | 89° |
| 2026-05-06 08:20 | 41.88040 | 96.88007 | 37110 ft | 523 kts | 89° |
| 2026-05-06 08:20 | 41.88152 | 96.97747 | 37108 ft | 522 kts | 89° |
| 2026-05-06 08:21 | 41.88258 | 97.07469 | 37102 ft | 521 kts | 89° |
| 2026-05-06 08:21 | 41.88355 | 97.17179 | 37108 ft | 520 kts | 89° |
| 2026-05-06 08:22 | 41.88444 | 97.26875 | 37103 ft | 520 kts | 89° |
| 2026-05-06 08:22 | 41.88525 | 97.36577 | 37096 ft | 520 kts | 89° |
| 2026-05-06 08:23 | 41.88597 | 97.46276 | 37099 ft | 520 kts | 89° |
| 2026-05-06 08:23 | 41.88661 | 97.55986 | 37091 ft | 521 kts | 89° |
| 2026-05-06 08:24 | 41.88717 | 97.65718 | 37089 ft | 522 kts | 89° |
| 2026-05-06 08:24 | 41.88765 | 97.75453 | 37092 ft | 522 kts | 89° |
| 2026-05-06 08:25 | 41.88805 | 97.85205 | 37089 ft | 523 kts | 89° |
| 2026-05-06 08:25 | 41.88836 | 97.94916 | 37084 ft | 524 kts | 89° |
| 2026-05-06 08:26 | 41.88860 | 98.04695 | 37083 ft | 524 kts | 90° |
| 2026-05-06 08:26 | 41.88875 | 98.14478 | 37088 ft | 524 kts | 90° |
| 2026-05-06 08:27 | 41.88881 | 98.24278 | 37073 ft | 525 kts | 90° |
| 2026-05-06 08:27 | 41.88880 | 98.34072 | 37090 ft | 525 kts | 90° |
| 2026-05-06 08:28 | 41.88870 | 98.43872 | 37086 ft | 525 kts | 90° |
| 2026-05-06 08:28 | 41.88852 | 98.53677 | 37079 ft | 525 kts | 90° |
| 2026-05-06 08:29 | 41.88825 | 98.63435 | 37073 ft | 525 kts | 90° |
| 2026-05-06 08:29 | 41.88790 | 98.73249 | 37070 ft | 526 kts | 90° |
| 2026-05-06 08:30 | 41.88747 | 98.83050 | 37079 ft | 526 kts | 90° |
| 2026-05-06 08:30 | 41.88697 | 98.92636 | 37082 ft | 526 kts | 90° |
| 2026-05-06 08:31 | 41.88637 | 99.02389 | 37065 ft | 526 kts | 90° |
| 2026-05-06 08:31 | 41.88569 | 99.12210 | 37066 ft | 527 kts | 90° |
| 2026-05-06 08:32 | 41.88493 | 99.22041 | 37062 ft | 527 kts | 90° |
| 2026-05-06 08:32 | 41.88408 | 99.31875 | 37064 ft | 527 kts | 90° |
| 2026-05-06 08:33 | 41.88314 | 99.41711 | 37064 ft | 527 kts | 90° |
| 2026-05-06 08:33 | 41.88212 | 99.51560 | 37066 ft | 528 kts | 90° |
| 2026-05-06 08:34 | 41.88043 | 99.66343 | 37060 ft | 528 kts | 90° |
| 2026-05-06 08:35 | 41.87920 | 99.76196 | 37054 ft | 529 kts | 90° |
| 2026-05-06 08:35 | 41.87789 | 99.86058 | 37057 ft | 529 kts | 90° |
| 2026-05-06 08:36 | 41.87649 | 99.95929 | 37061 ft | 529 kts | 90° |
| 2026-05-06 08:36 | 41.87500 | 100.05802 | 37058 ft | 530 kts | 90° |
| 2026-05-06 08:37 | 41.87342 | 100.15694 | 37061 ft | 530 kts | 91° |
| 2026-05-06 08:37 | 41.87177 | 100.25584 | 37062 ft | 530 kts | 91° |
| 2026-05-06 08:38 | 41.87002 | 100.35474 | 37067 ft | 531 kts | 91° |
| 2026-05-06 08:38 | 41.86820 | 100.45315 | 37070 ft | 531 kts | 91° |
| 2026-05-06 08:39 | 41.86629 | 100.55219 | 37073 ft | 531 kts | 91° |
| 2026-05-06 08:39 | 41.86428 | 100.65129 | 37070 ft | 532 kts | 91° |
| 2026-05-06 08:40 | 41.86219 | 100.75050 | 37074 ft | 532 kts | 91° |
| 2026-05-06 08:40 | 41.86002 | 100.84980 | 37075 ft | 532 kts | 91° |
| 2026-05-06 08:41 | 41.85775 | 100.94913 | 37076 ft | 533 kts | 91° |
| 2026-05-06 08:41 | 41.85541 | 101.04844 | 37077 ft | 533 kts | 91° |
| 2026-05-06 08:42 | 41.85296 | 101.14784 | 37084 ft | 533 kts | 92° |
| 2026-05-06 08:42 | 41.84292 | 101.24623 | 37083 ft | 533 kts | 103° |
| 2026-05-06 08:43 | 41.82091 | 101.34082 | 37084 ft | 531 kts | 112° |
| 2026-05-06 08:43 | 41.79477 | 101.43350 | 37079 ft | 532 kts | 112° |
| 2026-05-06 08:44 | 41.76869 | 101.52618 | 37077 ft | 532 kts | 112° |
| 2026-05-06 08:44 | 41.74289 | 101.61921 | 37082 ft | 533 kts | 112° |
| 2026-05-06 08:45 | 41.71718 | 101.71227 | 37084 ft | 533 kts | 112° |
| 2026-05-06 08:45 | 41.69155 | 101.80468 | 37088 ft | 534 kts | 112° |
| 2026-05-06 08:46 | 41.66560 | 101.89775 | 37080 ft | 534 kts | 112° |
| 2026-05-06 08:46 | 41.63954 | 101.99081 | 37090 ft | 534 kts | 112° |
| 2026-05-06 08:47 | 41.61339 | 102.08386 | 37090 ft | 535 kts | 112° |
| 2026-05-06 08:47 | 41.58716 | 102.17686 | 37088 ft | 535 kts | 112° |
| 2026-05-06 08:48 | 41.56087 | 102.26976 | 37092 ft | 535 kts | 112° |
| 2026-05-06 08:48 | 41.53450 | 102.36259 | 37091 ft | 535 kts | 113° |
| 2026-05-06 08:49 | 41.50804 | 102.45540 | 37100 ft | 535 kts | 113° |
| 2026-05-06 08:49 | 41.48150 | 102.54814 | 37097 ft | 535 kts | 113° |
| 2026-05-06 08:50 | 41.45488 | 102.64088 | 37099 ft | 535 kts | 113° |
| 2026-05-06 08:50 | 41.42823 | 102.73347 | 37106 ft | 536 kts | 113° |
| 2026-05-06 08:51 | 41.40161 | 102.82617 | 37101 ft | 536 kts | 113° |
| 2026-05-06 08:51 | 41.37494 | 102.91895 | 37106 ft | 536 kts | 113° |
| 2026-05-06 08:52 | 41.34827 | 103.01150 | 37110 ft | 536 kts | 113° |
| 2026-05-06 08:52 | 41.32242 | 103.10467 | 37114 ft | 537 kts | 112° |
| 2026-05-06 08:53 | 41.29704 | 103.19743 | 37111 ft | 537 kts | 112° |
| 2026-05-06 08:53 | 41.27132 | 103.29065 | 37116 ft | 537 kts | 112° |
| 2026-05-06 08:54 | 41.24538 | 103.38382 | 37125 ft | 537 kts | 112° |
| 2026-05-06 08:54 | 41.21934 | 103.47688 | 37127 ft | 538 kts | 112° |
| 2026-05-06 08:55 | 41.19321 | 103.56994 | 37125 ft | 538 kts | 113° |
| 2026-05-06 08:55 | 41.16700 | 103.66300 | 37132 ft | 538 kts | 113° |
| 2026-05-06 08:56 | 41.14071 | 103.75603 | 37127 ft | 539 kts | 113° |
| 2026-05-06 08:56 | 41.11432 | 103.84905 | 37136 ft | 539 kts | 113° |
| 2026-05-06 08:57 | 41.09233 | 103.92629 | 37131 ft | 539 kts | 113° |
| 2026-05-06 08:57 | 41.06579 | 104.01924 | 37131 ft | 539 kts | 113° |
| 2026-05-06 08:58 | 41.03915 | 104.11219 | 37140 ft | 539 kts | 113° |
| 2026-05-06 08:58 | 41.01248 | 104.20494 | 37138 ft | 539 kts | 114° |
| 2026-05-06 08:59 | 40.98570 | 104.29774 | 37146 ft | 539 kts | 114° |
| 2026-05-06 08:59 | 40.96137 | 104.39187 | 37136 ft | 541 kts | 110° |
| 2026-05-06 09:00 | 40.93877 | 104.48695 | 37164 ft | 544 kts | 110° |
| 2026-05-06 09:00 | 40.92743 | 104.53478 | 37442 ft | 546 kts | 110° |
| 2026-05-06 09:00 | 40.91601 | 104.58255 | 37872 ft | 544 kts | 110° |
| 2026-05-06 09:00 | 40.90456 | 104.63006 | 38341 ft | 541 kts | 110° |
| 2026-05-06 09:01 | 40.89307 | 104.67739 | 38781 ft | 539 kts | 110° |
| 2026-05-06 09:01 | 40.88156 | 104.72453 | 39051 ft | 539 kts | 110° |
| 2026-05-06 09:01 | 40.86999 | 104.77174 | 39093 ft | 543 kts | 110° |
| 2026-05-06 09:02 | 40.84667 | 104.86656 | 39148 ft | 542 kts | 110° |
| 2026-05-06 09:02 | 40.82342 | 104.96091 | 39147 ft | 539 kts | 110° |
| 2026-05-06 09:03 | 40.80037 | 105.05411 | 39150 ft | 536 kts | 111° |
| 2026-05-06 09:03 | 40.77716 | 105.14754 | 39153 ft | 536 kts | 111° |
| 2026-05-06 09:04 | 40.75383 | 105.24109 | 39158 ft | 538 kts | 111° |
| 2026-05-06 09:04 | 40.73020 | 105.33541 | 39165 ft | 545 kts | 111° |
| 2026-05-06 09:05 | 40.70630 | 105.43052 | 39162 ft | 548 kts | 111° |
| 2026-05-06 09:05 | 40.68226 | 105.52584 | 39151 ft | 548 kts | 111° |
| 2026-05-06 09:06 | 40.65815 | 105.62105 | 39146 ft | 547 kts | 111° |
| 2026-05-06 09:06 | 40.63403 | 105.71591 | 39141 ft | 545 kts | 111° |
| 2026-05-06 09:07 | 40.60995 | 105.81021 | 39138 ft | 542 kts | 111° |
| 2026-05-06 09:07 | 40.58588 | 105.90414 | 39136 ft | 541 kts | 111° |
| 2026-05-06 09:08 | 40.56182 | 105.99761 | 39136 ft | 539 kts | 111° |
| 2026-05-06 09:08 | 40.53770 | 106.09097 | 39133 ft | 539 kts | 112° |
| 2026-05-06 09:09 | 40.51366 | 106.18367 | 39123 ft | 539 kts | 112° |
| 2026-05-06 09:09 | 40.48939 | 106.27690 | 39128 ft | 539 kts | 112° |
| 2026-05-06 09:10 | 40.46503 | 106.37014 | 39122 ft | 541 kts | 112° |
| 2026-05-06 09:10 | 40.44051 | 106.46365 | 39107 ft | 542 kts | 112° |
| 2026-05-06 09:11 | 40.41590 | 106.55714 | 39106 ft | 543 kts | 112° |
| 2026-05-06 09:11 | 40.39114 | 106.65083 | 39103 ft | 543 kts | 112° |
| 2026-05-06 09:12 | 40.36631 | 106.74447 | 39099 ft | 544 kts | 112° |
| 2026-05-06 09:12 | 40.34137 | 106.83821 | 39100 ft | 545 kts | 112° |
| 2026-05-06 09:13 | 40.31989 | 106.93348 | 39095 ft | 549 kts | 101° |
| 2026-05-06 09:13 | 40.31594 | 107.03328 | 39112 ft | 550 kts | 85° |
| 2026-05-06 09:14 | 40.32741 | 107.13212 | 39120 ft | 549 kts | 78° |
| 2026-05-06 09:14 | 40.34102 | 107.23073 | 39115 ft | 550 kts | 78° |
| 2026-05-06 09:15 | 40.35386 | 107.32973 | 39117 ft | 551 kts | 79° |
| 2026-05-06 09:15 | 40.36605 | 107.42897 | 39115 ft | 551 kts | 80° |
| 2026-05-06 09:16 | 40.37806 | 107.52824 | 39112 ft | 551 kts | 80° |
| 2026-05-06 09:16 | 40.39005 | 107.62748 | 39115 ft | 551 kts | 80° |
| 2026-05-06 09:17 | 40.40199 | 107.72664 | 39115 ft | 550 kts | 80° |
| 2026-05-06 09:17 | 40.41383 | 107.82578 | 39107 ft | 550 kts | 80° |
| 2026-05-06 09:18 | 40.42559 | 107.92502 | 39110 ft | 550 kts | 80° |
| 2026-05-06 09:18 | 40.43722 | 108.02414 | 39115 ft | 550 kts | 81° |
| 2026-05-06 09:19 | 40.44858 | 108.12264 | 39107 ft | 549 kts | 81° |
| 2026-05-06 09:19 | 40.45992 | 108.22185 | 39108 ft | 549 kts | 81° |
| 2026-05-06 09:20 | 40.47117 | 108.32105 | 39107 ft | 549 kts | 81° |
| 2026-05-06 09:20 | 40.48237 | 108.42031 | 39110 ft | 549 kts | 81° |
| 2026-05-06 09:21 | 40.49348 | 108.51963 | 39103 ft | 550 kts | 81° |
| 2026-05-06 09:21 | 40.50452 | 108.61907 | 39110 ft | 550 kts | 81° |
| 2026-05-06 09:22 | 40.51547 | 108.71863 | 39101 ft | 551 kts | 81° |
| 2026-05-06 09:22 | 40.52634 | 108.81823 | 39098 ft | 551 kts | 82° |
| 2026-05-06 09:23 | 40.53714 | 108.91795 | 39091 ft | 551 kts | 82° |
| 2026-05-06 09:23 | 40.54786 | 109.01780 | 39091 ft | 551 kts | 82° |
| 2026-05-06 09:24 | 40.55849 | 109.11762 | 39094 ft | 552 kts | 82° |
| 2026-05-06 09:24 | 40.56904 | 109.21755 | 39087 ft | 552 kts | 82° |
| 2026-05-06 09:25 | 40.57951 | 109.31752 | 39087 ft | 552 kts | 82° |
| 2026-05-06 09:25 | 40.58991 | 109.41767 | 39085 ft | 552 kts | 82° |
| 2026-05-06 09:26 | 40.60021 | 109.51778 | 39073 ft | 552 kts | 82° |
| 2026-05-06 09:26 | 40.61042 | 109.61790 | 39081 ft | 552 kts | 83° |
| 2026-05-06 09:27 | 40.62056 | 109.71821 | 39085 ft | 553 kts | 83° |
| 2026-05-06 09:27 | 40.63055 | 109.81789 | 39072 ft | 553 kts | 83° |
| 2026-05-06 09:28 | 40.64053 | 109.91828 | 39074 ft | 553 kts | 83° |
| 2026-05-06 09:28 | 40.64789 | 110.01897 | 39070 ft | 552 kts | 91° |
| 2026-05-06 09:29 | 40.64716 | 110.12001 | 39073 ft | 552 kts | 93° |
| 2026-05-06 09:29 | 40.64577 | 110.22097 | 39073 ft | 552 kts | 92° |
| 2026-05-06 09:30 | 40.64498 | 110.32200 | 39095 ft | 552 kts | 92° |
| 2026-05-06 09:30 | 40.64432 | 110.42321 | 39067 ft | 552 kts | 93° |
| 2026-05-06 09:31 | 40.64348 | 110.52428 | 39088 ft | 552 kts | 93° |
| 2026-05-06 09:31 | 40.64256 | 110.62559 | 39079 ft | 555 kts | 93° |
| 2026-05-06 09:32 | 40.64157 | 110.72742 | 39067 ft | 557 kts | 93° |
| 2026-05-06 09:32 | 40.64048 | 110.82911 | 39073 ft | 554 kts | 93° |
| 2026-05-06 09:33 | 40.63931 | 110.93029 | 39075 ft | 552 kts | 93° |
| 2026-05-06 09:33 | 40.63805 | 111.03135 | 39074 ft | 552 kts | 94° |
| 2026-05-06 09:34 | 40.63671 | 111.13238 | 39074 ft | 552 kts | 94° |
| 2026-05-06 09:34 | 40.63529 | 111.23288 | 39076 ft | 553 kts | 94° |
| 2026-05-06 09:35 | 40.63378 | 111.33477 | 39076 ft | 554 kts | 94° |
| 2026-05-06 09:35 | 40.63219 | 111.43625 | 39075 ft | 555 kts | 94° |
| 2026-05-06 09:36 | 40.63052 | 111.53734 | 39076 ft | 556 kts | 94° |
| 2026-05-06 09:36 | 40.62875 | 111.63911 | 39086 ft | 557 kts | 94° |
| 2026-05-06 09:37 | 40.62688 | 111.74095 | 39090 ft | 557 kts | 94° |
| 2026-05-06 09:37 | 40.62494 | 111.84301 | 39088 ft | 558 kts | 94° |
| 2026-05-06 09:38 | 40.62347 | 111.94516 | 39086 ft | 559 kts | 93° |
| 2026-05-06 09:38 | 40.62112 | 112.04737 | 39076 ft | 558 kts | 96° |
| 2026-05-06 09:39 | 40.61829 | 112.14939 | 39070 ft | 559 kts | 95° |
| 2026-05-06 09:39 | 40.61605 | 112.25164 | 39060 ft | 559 kts | 95° |
| 2026-05-06 09:40 | 40.61365 | 112.35397 | 39039 ft | 559 kts | 95° |
| 2026-05-06 09:40 | 40.60983 | 112.50734 | 39056 ft | 559 kts | 95° |
| 2026-05-06 09:41 | 40.60474 | 112.60863 | 39040 ft | 558 kts | 98° |
| 2026-05-06 09:41 | 40.59814 | 112.71036 | 39040 ft | 558 kts | 98° |
| 2026-05-06 09:42 | 40.59082 | 112.81199 | 39031 ft | 558 kts | 100° |
| 2026-05-06 09:42 | 40.58308 | 112.91371 | 39017 ft | 560 kts | 98° |
| 2026-05-06 09:43 | 40.57654 | 113.01588 | 39001 ft | 560 kts | 98° |
| 2026-05-06 09:43 | 40.56993 | 113.11796 | 38995 ft | 560 kts | 98° |
| 2026-05-06 09:44 | 40.56300 | 113.21989 | 39001 ft | 560 kts | 99° |
| 2026-05-06 09:44 | 40.55588 | 113.32182 | 38990 ft | 560 kts | 99° |
| 2026-05-06 09:45 | 40.54869 | 113.42363 | 38991 ft | 559 kts | 99° |
| 2026-05-06 09:45 | 40.54143 | 113.52536 | 38985 ft | 559 kts | 99° |
| 2026-05-06 09:46 | 40.53534 | 113.60984 | 38973 ft | 558 kts | 99° |
| 2026-05-06 09:46 | 40.52794 | 113.71129 | 38964 ft | 557 kts | 99° |
| 2026-05-06 09:47 | 40.52047 | 113.81252 | 38954 ft | 556 kts | 99° |
| 2026-05-06 09:47 | 40.51292 | 113.91363 | 38945 ft | 555 kts | 99° |
| 2026-05-06 09:48 | 40.50539 | 114.01469 | 38942 ft | 556 kts | 98° |
| 2026-05-06 09:48 | 40.50055 | 114.11606 | 38938 ft | 557 kts | 96° |
| 2026-05-06 09:49 | 40.49703 | 114.21773 | 38943 ft | 557 kts | 96° |
| 2026-05-06 09:49 | 40.49304 | 114.31947 | 38927 ft | 558 kts | 97° |
| 2026-05-06 09:50 | 40.48852 | 114.42125 | 38931 ft | 558 kts | 97° |
| 2026-05-06 09:50 | 40.48380 | 114.52309 | 38925 ft | 559 kts | 97° |
| 2026-05-06 09:51 | 40.47903 | 114.62505 | 38922 ft | 560 kts | 97° |
| 2026-05-06 09:51 | 40.47419 | 114.72723 | 38925 ft | 560 kts | 97° |
| 2026-05-06 09:52 | 40.46929 | 114.82935 | 38895 ft | 560 kts | 97° |
| 2026-05-06 09:52 | 40.46432 | 114.93062 | 38904 ft | 559 kts | 97° |
| 2026-05-06 09:53 | 40.45922 | 115.03239 | 38889 ft | 559 kts | 97° |
| 2026-05-06 09:53 | 40.45404 | 115.13413 | 38894 ft | 559 kts | 97° |
| 2026-05-06 09:54 | 40.44878 | 115.23588 | 38884 ft | 559 kts | 97° |
| 2026-05-06 09:54 | 40.44341 | 115.33775 | 38885 ft | 559 kts | 97° |
| 2026-05-06 09:55 | 40.43796 | 115.43973 | 38876 ft | 560 kts | 97° |
| 2026-05-06 09:55 | 40.43239 | 115.54184 | 38871 ft | 561 kts | 98° |
| 2026-05-06 09:56 | 40.42486 | 115.64366 | 38865 ft | 561 kts | 100° |
| 2026-05-06 09:56 | 40.41609 | 115.74524 | 38847 ft | 560 kts | 100° |
| 2026-05-06 09:57 | 40.40746 | 115.84686 | 38851 ft | 560 kts | 99° |
| 2026-05-06 09:57 | 40.39906 | 115.94834 | 38844 ft | 559 kts | 99° |
| 2026-05-06 09:58 | 40.39067 | 116.04964 | 38846 ft | 559 kts | 99° |
| 2026-05-06 09:58 | 40.38216 | 116.15090 | 38838 ft | 558 kts | 99° |
| 2026-05-06 09:59 | 40.37353 | 116.25219 | 38828 ft | 558 kts | 100° |
| 2026-05-06 09:59 | 40.36483 | 116.35323 | 38838 ft | 558 kts | 100° |
| 2026-05-06 10:00 | 40.35610 | 116.45366 | 38838 ft | 558 kts | 100° |
| 2026-05-06 10:00 | 40.34723 | 116.55482 | 38832 ft | 558 kts | 100° |
| 2026-05-06 10:01 | 40.33113 | 116.65248 | 38825 ft | 538 kts | 123° |
| 2026-05-06 10:01 | 40.31137 | 116.69294 | 38827 ft | 518 kts | 141° |
| 2026-05-06 10:01 | 40.28568 | 116.72459 | 38842 ft | 500 kts | 154° |
| 2026-05-06 10:02 | 40.22617 | 116.76820 | 38831 ft | 481 kts | 172° |
| 2026-05-06 10:02 | 40.19445 | 116.77757 | 38839 ft | 460 kts | 183° |
| 2026-05-06 10:02 | 40.16269 | 116.78328 | 38836 ft | 461 kts | 184° |
| 2026-05-06 10:03 | 40.09887 | 116.79450 | 38826 ft | 464 kts | 183° |
| 2026-05-06 10:03 | 40.03495 | 116.80678 | 38821 ft | 464 kts | 182° |
| 2026-05-06 10:04 | 39.97167 | 116.81954 | 38814 ft | 456 kts | 183° |
| 2026-05-06 10:04 | 39.90931 | 116.83206 | 38834 ft | 453 kts | 183° |
| 2026-05-06 10:05 | 39.84708 | 116.84443 | 38831 ft | 452 kts | 183° |
| 2026-05-06 10:05 | 39.78491 | 116.85683 | 38840 ft | 452 kts | 183° |
| 2026-05-06 10:06 | 39.72263 | 116.86969 | 38843 ft | 454 kts | 182° |
| 2026-05-06 10:06 | 39.66010 | 116.88275 | 38841 ft | 455 kts | 182° |
| 2026-05-06 10:07 | 39.59749 | 116.89575 | 38837 ft | 457 kts | 182° |
| 2026-05-06 10:07 | 39.53461 | 116.90875 | 38844 ft | 458 kts | 182° |
| 2026-05-06 10:08 | 39.47207 | 116.92165 | 38840 ft | 459 kts | 182° |
| 2026-05-06 10:08 | 39.40855 | 116.93472 | 38850 ft | 459 kts | 182° |
| 2026-05-06 10:09 | 39.34578 | 116.94762 | 38840 ft | 460 kts | 182° |
| 2026-05-06 10:09 | 39.28247 | 116.96062 | 38847 ft | 461 kts | 182° |
| 2026-05-06 10:10 | 39.21908 | 116.97359 | 38851 ft | 461 kts | 182° |
| 2026-05-06 10:10 | 39.18755 | 116.98314 | 38846 ft | 478 kts | 169° |
| 2026-05-06 10:10 | 39.15763 | 117.00440 | 38856 ft | 506 kts | 152° |
| 2026-05-06 10:11 | 39.13247 | 117.03740 | 38852 ft | 531 kts | 133° |
| 2026-05-06 10:11 | 39.11521 | 117.08026 | 38866 ft | 550 kts | 113° |
| 2026-05-06 10:11 | 39.10691 | 117.12883 | 38899 ft | 558 kts | 102° |
| 2026-05-06 10:11 | 39.10200 | 117.17852 | 38881 ft | 561 kts | 99° |
| 2026-05-06 10:12 | 39.09201 | 117.27818 | 38885 ft | 561 kts | 103° |
| 2026-05-06 10:12 | 39.07960 | 117.37736 | 38886 ft | 563 kts | 99° |
| 2026-05-06 10:13 | 39.07634 | 117.47819 | 38887 ft | 564 kts | 92° |
| 2026-05-06 10:13 | 39.07617 | 117.57913 | 38874 ft | 563 kts | 92° |
| 2026-05-06 10:14 | 39.07539 | 117.67969 | 38859 ft | 561 kts | 93° |
| 2026-05-06 10:14 | 39.07397 | 117.77979 | 38850 ft | 558 kts | 93° |
| 2026-05-06 10:15 | 39.07243 | 117.87938 | 38847 ft | 555 kts | 93° |
| 2026-05-06 10:15 | 39.07091 | 117.97847 | 38850 ft | 553 kts | 93° |
| 2026-05-06 10:16 | 39.06460 | 118.07590 | 38844 ft | 546 kts | 104° |
| 2026-05-06 10:16 | 39.04908 | 118.17120 | 38855 ft | 542 kts | 106° |
| 2026-05-06 10:17 | 39.03333 | 118.26532 | 38843 ft | 541 kts | 105° |
| 2026-05-06 10:17 | 39.01808 | 118.36012 | 38852 ft | 541 kts | 104° |
| 2026-05-06 10:18 | 39.00297 | 118.45484 | 38850 ft | 540 kts | 105° |
| 2026-05-06 10:18 | 38.98772 | 118.54930 | 38858 ft | 540 kts | 104° |
| 2026-05-06 10:19 | 38.97243 | 118.64380 | 38849 ft | 540 kts | 104° |
| 2026-05-06 10:19 | 38.95709 | 118.73820 | 38850 ft | 540 kts | 104° |
| 2026-05-06 10:20 | 38.94168 | 118.83256 | 38848 ft | 539 kts | 104° |
| 2026-05-06 10:20 | 38.92620 | 118.92684 | 38850 ft | 539 kts | 104° |
| 2026-05-06 10:21 | 38.91067 | 119.02095 | 38841 ft | 539 kts | 104° |
| 2026-05-06 10:21 | 38.89509 | 119.11438 | 38847 ft | 538 kts | 104° |
| 2026-05-06 10:22 | 38.87929 | 119.20823 | 38842 ft | 538 kts | 104° |
| 2026-05-06 10:22 | 38.86345 | 119.30201 | 38847 ft | 537 kts | 104° |
| 2026-05-06 10:23 | 38.84755 | 119.39573 | 38838 ft | 537 kts | 104° |
| 2026-05-06 10:23 | 38.83160 | 119.48928 | 38843 ft | 536 kts | 104° |
| 2026-05-06 10:24 | 38.81569 | 119.58208 | 38840 ft | 536 kts | 104° |
| 2026-05-06 10:24 | 38.79953 | 119.67593 | 38848 ft | 535 kts | 104° |
| 2026-05-06 10:25 | 38.78351 | 119.76851 | 38843 ft | 535 kts | 104° |
| 2026-05-06 10:25 | 38.76750 | 119.86168 | 38842 ft | 536 kts | 103° |
| 2026-05-06 10:26 | 38.75263 | 119.95518 | 38839 ft | 536 kts | 103° |
| 2026-05-06 10:26 | 38.73693 | 120.04847 | 38842 ft | 535 kts | 104° |
| 2026-05-06 10:27 | 38.71705 | 120.13730 | 38829 ft | 526 kts | 122° |
| 2026-05-06 10:27 | 38.69640 | 120.17516 | 38841 ft | 514 kts | 139° |
| 2026-05-06 10:27 | 38.66969 | 120.20481 | 38856 ft | 506 kts | 152° |
| 2026-05-06 10:28 | 38.63949 | 120.22729 | 38837 ft | 499 kts | 163° |
| 2026-05-06 10:28 | 38.60700 | 120.24051 | 38841 ft | 485 kts | 172° |
| 2026-05-06 10:28 | 38.57530 | 120.25701 | 38827 ft | 504 kts | 153° |
| 2026-05-06 10:28 | 38.54838 | 120.28664 | 38842 ft | 522 kts | 133° |
| 2026-05-06 10:29 | 38.52935 | 120.32660 | 38839 ft | 534 kts | 113° |
| 2026-05-06 10:29 | 38.52050 | 120.37280 | 38844 ft | 539 kts | 94° |
| 2026-05-06 10:29 | 38.52285 | 120.42020 | 38840 ft | 533 kts | 74° |
| 2026-05-06 10:29 | 38.53466 | 120.46449 | 38860 ft | 524 kts | 64° |
| 2026-05-06 10:30 | 38.55409 | 120.55369 | 38825 ft | 525 kts | 86° |
| 2026-05-06 10:30 | 38.54882 | 120.64642 | 38845 ft | 524 kts | 101° |
| 2026-05-06 10:31 | 38.53290 | 120.73717 | 38837 ft | 524 kts | 105° |
| 2026-05-06 10:31 | 38.51627 | 120.82718 | 38840 ft | 525 kts | 103° |
| 2026-05-06 10:32 | 38.50090 | 120.91834 | 38833 ft | 526 kts | 103° |
| 2026-05-06 10:32 | 38.48596 | 121.00978 | 38848 ft | 526 kts | 103° |
| 2026-05-06 10:33 | 38.47082 | 121.10126 | 38828 ft | 527 kts | 103° |
| 2026-05-06 10:33 | 38.45587 | 121.19283 | 38828 ft | 527 kts | 102° |
| 2026-05-06 10:34 | 38.44422 | 121.26977 | 38826 ft | 527 kts | 102° |
| 2026-05-06 10:34 | 38.42675 | 121.37613 | 38831 ft | 527 kts | 103° |
| 2026-05-06 10:35 | 38.41156 | 121.46750 | 38818 ft | 527 kts | 103° |
| 2026-05-06 10:35 | 38.39898 | 121.54338 | 38825 ft | 526 kts | 103° |
| 2026-05-06 10:36 | 38.38377 | 121.63460 | 38819 ft | 526 kts | 103° |
| 2026-05-06 10:36 | 38.36850 | 121.72567 | 38825 ft | 525 kts | 103° |
| 2026-05-06 10:37 | 38.35320 | 121.81654 | 38822 ft | 524 kts | 103° |
| 2026-05-06 10:37 | 38.33785 | 121.90727 | 38828 ft | 524 kts | 103° |
| 2026-05-06 10:38 | 38.32242 | 121.99798 | 38826 ft | 523 kts | 103° |
| 2026-05-06 10:38 | 38.30697 | 122.08839 | 38835 ft | 522 kts | 103° |
| 2026-05-06 10:39 | 38.29156 | 122.17817 | 38832 ft | 522 kts | 103° |
| 2026-05-06 10:39 | 38.27608 | 122.26840 | 38843 ft | 521 kts | 102° |
| 2026-05-06 10:40 | 38.26328 | 122.35918 | 38847 ft | 521 kts | 100° |
| 2026-05-06 10:40 | 38.24211 | 122.44647 | 38852 ft | 516 kts | 120° |
| 2026-05-06 10:41 | 38.20063 | 122.51988 | 38843 ft | 509 kts | 139° |
| 2026-05-06 10:41 | 38.14995 | 122.58258 | 38856 ft | 509 kts | 139° |
| 2026-05-06 10:42 | 38.09980 | 122.64636 | 38854 ft | 511 kts | 137° |
| 2026-05-06 10:42 | 38.05011 | 122.71098 | 38866 ft | 512 kts | 137° |
| 2026-05-06 10:43 | 38.00042 | 122.77566 | 38870 ft | 512 kts | 137° |
| 2026-05-06 10:44 | 37.92564 | 122.87258 | 38882 ft | 513 kts | 137° |
| 2026-05-06 10:44 | 37.87570 | 122.93709 | 38880 ft | 513 kts | 137° |
| 2026-05-06 10:45 | 37.82567 | 123.00157 | 38889 ft | 513 kts | 137° |
| 2026-05-06 10:45 | 37.77564 | 123.06593 | 38889 ft | 513 kts | 137° |
| 2026-05-06 10:46 | 37.72596 | 123.12972 | 38904 ft | 512 kts | 137° |
| 2026-05-06 10:46 | 37.67594 | 123.19381 | 38910 ft | 512 kts | 137° |
| 2026-05-06 10:47 | 37.62596 | 123.25774 | 38920 ft | 511 kts | 137° |
| 2026-05-06 10:47 | 37.57608 | 123.32160 | 38920 ft | 511 kts | 135° |
| 2026-05-06 10:48 | 37.53111 | 123.39109 | 38933 ft | 512 kts | 128° |
| 2026-05-06 10:48 | 37.48884 | 123.46333 | 38919 ft | 512 kts | 128° |
| 2026-05-06 10:49 | 37.44650 | 123.53521 | 38928 ft | 511 kts | 128° |
| 2026-05-06 10:49 | 37.40377 | 123.60681 | 38929 ft | 511 kts | 129° |
| 2026-05-06 10:50 | 37.36099 | 123.67812 | 38939 ft | 511 kts | 129° |
| 2026-05-06 10:50 | 37.31816 | 123.74940 | 38942 ft | 511 kts | 129° |
| 2026-05-06 10:51 | 37.27579 | 123.81985 | 38569 ft | 498 kts | 129° |
| 2026-05-06 10:51 | 37.25515 | 123.85409 | 37838 ft | 499 kts | 128° |
| 2026-05-06 10:51 | 37.23412 | 123.88896 | 37000 ft | 502 kts | 128° |
| 2026-05-06 10:51 | 37.21305 | 123.92384 | 36371 ft | 500 kts | 128° |
| 2026-05-06 10:52 | 37.19285 | 123.95901 | 35896 ft | 493 kts | 120° |
| 2026-05-06 10:52 | 37.17846 | 123.99765 | 35464 ft | 487 kts | 107° |
| 2026-05-06 10:52 | 37.17035 | 124.03841 | 35085 ft | 478 kts | 97° |
| 2026-05-06 10:52 | 37.16822 | 124.07943 | 34690 ft | 468 kts | 85° |
| 2026-05-06 10:53 | 37.17027 | 124.11985 | 34301 ft | 461 kts | 83° |
| 2026-05-06 10:53 | 37.17255 | 124.15973 | 33898 ft | 456 kts | 83° |
| 2026-05-06 10:53 | 37.17440 | 124.19925 | 33426 ft | 452 kts | 84° |
| 2026-05-06 10:53 | 37.17588 | 124.23852 | 32936 ft | 449 kts | 85° |
| 2026-05-06 10:54 | 37.17702 | 124.27743 | 32481 ft | 445 kts | 86° |
| 2026-05-06 10:54 | 37.17784 | 124.31599 | 32020 ft | 441 kts | 86° |
| 2026-05-06 10:54 | 37.17863 | 124.35432 | 31556 ft | 438 kts | 86° |
| 2026-05-06 10:54 | 37.17946 | 124.39231 | 31111 ft | 434 kts | 86° |
| 2026-05-06 10:55 | 37.18032 | 124.42999 | 30687 ft | 430 kts | 86° |
| 2026-05-06 10:55 | 37.18118 | 124.46734 | 30258 ft | 427 kts | 86° |
| 2026-05-06 10:55 | 37.18202 | 124.50442 | 29791 ft | 424 kts | 86° |
| 2026-05-06 10:55 | 37.18285 | 124.54120 | 29307 ft | 421 kts | 86° |
| 2026-05-06 10:56 | 37.18366 | 124.57778 | 28822 ft | 418 kts | 86° |
| 2026-05-06 10:56 | 37.18446 | 124.61400 | 28336 ft | 415 kts | 86° |
| 2026-05-06 10:56 | 37.18525 | 124.65005 | 27868 ft | 412 kts | 86° |
| 2026-05-06 10:56 | 37.18600 | 124.68594 | 27284 ft | 413 kts | 86° |
| 2026-05-06 10:57 | 37.18676 | 124.72223 | 26439 ft | 420 kts | 87° |
| 2026-05-06 10:57 | 37.18754 | 124.75906 | 25643 ft | 425 kts | 87° |
| 2026-05-06 10:57 | 37.18830 | 124.79626 | 24864 ft | 429 kts | 88° |
| 2026-05-06 10:57 | 37.18905 | 124.83379 | 24100 ft | 432 kts | 88° |
| 2026-05-06 10:58 | 37.18982 | 124.87153 | 23332 ft | 434 kts | 88° |
| 2026-05-06 10:58 | 37.19059 | 124.90944 | 22456 ft | 436 kts | 88° |
| 2026-05-06 10:58 | 37.19135 | 124.94745 | 21608 ft | 437 kts | 88° |
| 2026-05-06 10:58 | 37.19212 | 124.98555 | 20782 ft | 437 kts | 88° |
| 2026-05-06 10:59 | 37.19287 | 125.02365 | 19978 ft | 437 kts | 88° |
| 2026-05-06 10:59 | 37.19360 | 125.06161 | 19188 ft | 436 kts | 88° |
| 2026-05-06 10:59 | 37.19432 | 125.09963 | 18429 ft | 435 kts | 88° |
| 2026-05-06 10:59 | 37.19503 | 125.13748 | 17582 ft | 433 kts | 88° |
| 2026-05-06 11:00 | 37.19573 | 125.17514 | 16733 ft | 431 kts | 88° |
| 2026-05-06 11:00 | 37.19641 | 125.21265 | 15916 ft | 429 kts | 88° |
| 2026-05-06 11:00 | 37.19707 | 125.24992 | 15109 ft | 426 kts | 89° |
| 2026-05-06 11:00 | 37.19772 | 125.28696 | 14337 ft | 423 kts | 89° |
| 2026-05-06 11:01 | 37.19834 | 125.32344 | 13871 ft | 413 kts | 89° |
| 2026-05-06 11:01 | 37.19893 | 125.35877 | 13493 ft | 400 kts | 89° |
| 2026-05-06 11:01 | 37.19951 | 125.39355 | 12678 ft | 399 kts | 89° |
| 2026-05-06 11:01 | 37.20008 | 125.42844 | 11848 ft | 400 kts | 89° |
| 2026-05-06 11:02 | 37.20140 | 125.46300 | 11034 ft | 396 kts | 83° |
| 2026-05-06 11:02 | 37.20799 | 125.49654 | 10239 ft | 397 kts | 69° |
| 2026-05-06 11:02 | 37.21993 | 125.52774 | 9430 ft | 395 kts | 58° |
| 2026-05-06 11:02 | 37.23463 | 125.55676 | 8603 ft | 395 kts | 57° |
| 2026-05-06 11:03 | 37.24930 | 125.58589 | 7871 ft | 394 kts | 57° |
| 2026-05-06 11:03 | 37.26362 | 125.61475 | 7460 ft | 383 kts | 57° |
| 2026-05-06 11:03 | 37.27744 | 125.64283 | 7047 ft | 374 kts | 58° |
| 2026-05-06 11:03 | 37.29113 | 125.67076 | 6260 ft | 377 kts | 57° |
| 2026-05-06 11:04 | 37.30490 | 125.69891 | 5432 ft | 380 kts | 58° |
| 2026-05-06 11:04 | 37.31844 | 125.72672 | 4856 ft | 371 kts | 59° |
| 2026-05-06 11:04 | 37.32805 | 125.75601 | 4314 ft | 361 kts | 77° |
| 2026-05-06 11:04 | 37.32949 | 125.78747 | 3524 ft | 363 kts | 96° |
| 2026-05-06 11:05 | 37.32520 | 125.81846 | 2725 ft | 359 kts | 103° |
| 2026-05-06 11:05 | 37.32064 | 125.84888 | 2031 ft | 340 kts | 103° |
| 2026-05-06 11:05 | 37.31681 | 125.87652 | 1745 ft | 302 kts | 103° |
| 2026-05-06 11:05 | 37.31538 | 125.90136 | 1588 ft | 273 kts | 82° |
| 2026-05-06 11:06 | 37.32286 | 125.92226 | 1603 ft | 260 kts | 56° |
| 2026-05-06 11:06 | 37.33446 | 125.93956 | 1610 ft | 260 kts | 46° |
| 2026-05-06 11:06 | 37.34785 | 125.95502 | 1606 ft | 263 kts | 41° |
| 2026-05-06 11:06 | 37.36175 | 125.97009 | 1613 ft | 265 kts | 41° |
| 2026-05-06 11:07 | 37.37574 | 125.98513 | 1611 ft | 265 kts | 41° |
| 2026-05-06 11:07 | 37.38960 | 126.00010 | 1591 ft | 263 kts | 41° |
| 2026-05-06 11:07 | 37.40347 | 126.01514 | 1611 ft | 270 kts | 41° |
| 2026-05-06 11:07 | 37.41773 | 126.03070 | 1609 ft | 270 kts | 41° |
| 2026-05-06 11:08 | 37.43172 | 126.04603 | 1603 ft | 264 kts | 41° |
| 2026-05-06 11:08 | 37.44543 | 126.06112 | 1602 ft | 261 kts | 41° |
| 2026-05-06 11:08 | 37.45910 | 126.07617 | 1617 ft | 261 kts | 41° |
| 2026-05-06 11:08 | 37.47277 | 126.09125 | 1613 ft | 261 kts | 41° |
| 2026-05-06 11:09 | 37.48644 | 126.10635 | 1613 ft | 262 kts | 41° |
| 2026-05-06 11:09 | 37.50012 | 126.12147 | 1597 ft | 262 kts | 42° |
| 2026-05-06 11:09 | 37.51382 | 126.13663 | 1606 ft | 262 kts | 41° |
| 2026-05-06 11:09 | 37.52750 | 126.15178 | 1606 ft | 262 kts | 41° |
| 2026-05-06 11:10 | 37.54120 | 126.16695 | 1610 ft | 262 kts | 41° |
| 2026-05-06 11:10 | 37.55482 | 126.18203 | 1610 ft | 257 kts | 41° |
| 2026-05-06 11:10 | 37.56790 | 126.19658 | 1582 ft | 244 kts | 43° |
| 2026-05-06 11:10 | 37.57844 | 126.21219 | 1595 ft | 227 kts | 56° |
| 2026-05-06 11:11 | 37.58730 | 126.22827 | 1583 ft | 221 kts | 57° |
| 2026-05-06 11:11 | 37.59601 | 126.24411 | 1608 ft | 220 kts | 56° |
| 2026-05-06 11:11 | 37.60392 | 126.26050 | 1638 ft | 223 kts | 73° |
| 2026-05-06 11:11 | 37.60463 | 126.27971 | 1642 ft | 219 kts | 111° |
| 2026-05-06 11:12 | 37.59690 | 126.29522 | 1637 ft | 203 kts | 143° |
| 2026-05-06 11:12 | 37.58698 | 126.30654 | 1616 ft | 187 kts | 146° |
| 2026-05-06 11:12 | 37.57718 | 126.31642 | 1644 ft | 174 kts | 151° |
| 2026-05-06 11:12 | 37.56749 | 126.32528 | 1636 ft | 171 kts | 152° |
| 2026-05-06 11:13 | 37.55777 | 126.33398 | 1627 ft | 172 kts | 152° |
| 2026-05-06 11:13 | 37.54809 | 126.34260 | 1647 ft | 174 kts | 152° |
| 2026-05-06 11:13 | 37.53809 | 126.35155 | 1631 ft | 170 kts | 151° |
| 2026-05-06 11:13 | 37.52910 | 126.35960 | 1463 ft | 153 kts | 151° |
| 2026-05-06 11:14 | 37.52070 | 126.36711 | 1267 ft | 143 kts | 152° |
| 2026-05-06 11:14 | 37.51270 | 126.37421 | 1097 ft | 140 kts | 151° |
| 2026-05-06 11:14 | 37.50472 | 126.38131 | 896 ft | 139 kts | 149° |
| 2026-05-06 11:14 | 37.49701 | 126.38833 | 716 ft | 135 kts | 147° |
| 2026-05-06 11:15 | 37.48917 | 126.39520 | 537 ft | 138 kts | 147° |
| 2026-05-06 11:15 | 37.48147 | 126.40213 | 348 ft | 136 kts | 146° |
| 2026-05-06 11:15 | 37.47378 | 126.40899 | 214 ft | 135 kts | 146° |
| 2026-05-06 11:15 | 37.46611 | 126.41586 | 48 ft | 133 kts | 146° |
| 2026-05-06 11:16 | 37.45920 | 126.42194 | 38 ft | 105 kts | 144° |
| 2026-05-06 11:16 | 37.45453 | 126.42611 | 38 ft | 60 kts | 145° |
| 2026-05-06 11:16 | 37.45225 | 126.42818 | 38 ft | 29 kts | 139° |
| 2026-05-06 11:16 | 37.45103 | 126.43013 | 38 ft | 26 kts | 120° |
| 2026-05-06 11:17 | 37.45049 | 126.43191 | 38 ft | 19 kts | 88° |
| 2026-05-06 11:17 | 37.45116 | 126.43326 | 38 ft | 18 kts | 54° |
| 2026-05-06 11:17 | 37.45187 | 126.43452 | 38 ft | 18 kts | 54° |
| 2026-05-06 11:17 | 37.45254 | 126.43567 | 38 ft | 12 kts | 46° |
| 2026-05-06 11:18 | 37.45331 | 126.43559 | 38 ft | 12 kts | 329° |
| 2026-05-06 11:18 | 37.45420 | 126.43481 | 38 ft | 20 kts | 325° |
| 2026-05-06 11:18 | 37.45551 | 126.43364 | 38 ft | 24 kts | 324° |
| 2026-05-06 11:18 | 37.45686 | 126.43245 | 38 ft | 24 kts | 324° |
| 2026-05-06 11:19 | 37.45785 | 126.43178 | 38 ft | 12 kts | 9° |
| 2026-05-06 11:19 | 37.45841 | 126.43243 | 38 ft | 11 kts | 55° |
| 2026-05-06 11:19 | 37.45884 | 126.43322 | 38 ft | 11 kts | 55° |
| 2026-05-06 11:19 | 37.45946 | 126.43349 | 38 ft | 11 kts | 334° |
| 2026-05-06 11:20 | 37.46010 | 126.43296 | 38 ft | 11 kts | 324° |
| 2026-05-06 11:20 | 37.46073 | 126.43240 | 38 ft | 11 kts | 324° |
| 2026-05-06 11:20 | 37.46137 | 126.43184 | 38 ft | 11 kts | 325° |
| 2026-05-06 11:20 | 37.46206 | 126.43152 | 38 ft | 11 kts | 18° |
| 2026-05-06 11:21 | 37.46237 | 126.43211 | 38 ft | 8 kts | 69° |
| 2026-05-06 11:21 | 37.46247 | 126.43244 | 36 ft | 0 kts | 69° |